<?xml version="1.0" encoding="UTF-8" standalone="no" ?>
<gpx xmlns="http://www.topografix.com/GPX/1/1" xmlns:xsi="http://www.w3.org/2001/XMLSchema-instance" xsi:schemaLocation="http://www.topografix.com/GPX/1/1 http://www.topografix.com/GPX/1/1/gpx.xsd" version="1.1" creator="VisuGPX - https://www.visugpx.com">
  <metadata>
    <name>2013_10_07_Les Vans</name>
    <desc><![CDATA[Randonnée du Recoin de Chamrousse aux Vans ~ boris-petit.fr]]></desc>
  </metadata>
  <trk>
    <name><![CDATA[2013-10-07 20:54:56]]></name>
    <trkseg>
      <trkpt lat="45.12563" lon="5.87916">
        <ele>1669</ele>
        <time>2013-10-07T14:50:18Z</time>
      </trkpt>
      <trkpt lat="45.12562" lon="5.87918">
        <ele>1670</ele>
        <time>2013-10-07T14:50:19Z</time>
      </trkpt>
      <trkpt lat="45.12563" lon="5.87923">
        <ele>1670</ele>
        <time>2013-10-07T14:50:24Z</time>
      </trkpt>
      <trkpt lat="45.12568" lon="5.8793">
        <ele>1670</ele>
        <time>2013-10-07T14:50:29Z</time>
      </trkpt>
      <trkpt lat="45.12595" lon="5.87924">
        <ele>1676</ele>
        <time>2013-10-07T14:50:46Z</time>
      </trkpt>
      <trkpt lat="45.12632" lon="5.87902">
        <ele>1681</ele>
        <time>2013-10-07T14:51:01Z</time>
      </trkpt>
      <trkpt lat="45.12635" lon="5.87901">
        <ele>1682</ele>
        <time>2013-10-07T14:51:03Z</time>
      </trkpt>
      <trkpt lat="45.12637" lon="5.87904">
        <ele>1682</ele>
        <time>2013-10-07T14:51:08Z</time>
      </trkpt>
      <trkpt lat="45.12639" lon="5.87927">
        <ele>1683</ele>
        <time>2013-10-07T14:51:21Z</time>
      </trkpt>
      <trkpt lat="45.12646" lon="5.87951">
        <ele>1683</ele>
        <time>2013-10-07T14:51:34Z</time>
      </trkpt>
      <trkpt lat="45.12658" lon="5.87971">
        <ele>1683</ele>
        <time>2013-10-07T14:51:48Z</time>
      </trkpt>
      <trkpt lat="45.12674" lon="5.8798">
        <ele>1695</ele>
        <time>2013-10-07T14:52:01Z</time>
      </trkpt>
      <trkpt lat="45.12683" lon="5.87989">
        <ele>1695</ele>
        <time>2013-10-07T14:52:09Z</time>
      </trkpt>
      <trkpt lat="45.12684" lon="5.8799">
        <ele>1695</ele>
        <time>2013-10-07T14:52:10Z</time>
      </trkpt>
      <trkpt lat="45.12695" lon="5.88001">
        <ele>1698</ele>
        <time>2013-10-07T14:52:20Z</time>
      </trkpt>
      <trkpt lat="45.12698" lon="5.88005">
        <ele>1699</ele>
        <time>2013-10-07T14:52:41Z</time>
      </trkpt>
      <trkpt lat="45.12712" lon="5.88012">
        <ele>1702</ele>
        <time>2013-10-07T14:53:02Z</time>
      </trkpt>
      <trkpt lat="45.12725" lon="5.88021">
        <ele>1705</ele>
        <time>2013-10-07T14:53:12Z</time>
      </trkpt>
      <trkpt lat="45.12735" lon="5.88035">
        <ele>1706</ele>
        <time>2013-10-07T14:53:23Z</time>
      </trkpt>
      <trkpt lat="45.12743" lon="5.88044">
        <ele>1706</ele>
        <time>2013-10-07T14:53:31Z</time>
      </trkpt>
      <trkpt lat="45.12746" lon="5.88045">
        <ele>1706</ele>
        <time>2013-10-07T14:53:33Z</time>
      </trkpt>
      <trkpt lat="45.1275" lon="5.8805">
        <ele>1707</ele>
        <time>2013-10-07T14:53:38Z</time>
      </trkpt>
      <trkpt lat="45.1276" lon="5.88061">
        <ele>1722</ele>
        <time>2013-10-07T14:53:49Z</time>
      </trkpt>
      <trkpt lat="45.12766" lon="5.88073">
        <ele>1721</ele>
        <time>2013-10-07T14:54:00Z</time>
      </trkpt>
      <trkpt lat="45.12767" lon="5.88078">
        <ele>1721</ele>
        <time>2013-10-07T14:54:06Z</time>
      </trkpt>
      <trkpt lat="45.12776" lon="5.88095">
        <ele>1726</ele>
        <time>2013-10-07T14:54:20Z</time>
      </trkpt>
      <trkpt lat="45.12777" lon="5.88098">
        <ele>1727</ele>
        <time>2013-10-07T14:54:22Z</time>
      </trkpt>
      <trkpt lat="45.12781" lon="5.88115">
        <ele>1729</ele>
        <time>2013-10-07T14:54:33Z</time>
      </trkpt>
      <trkpt lat="45.12788" lon="5.88126">
        <ele>1731</ele>
        <time>2013-10-07T14:54:41Z</time>
      </trkpt>
      <trkpt lat="45.12797" lon="5.88133">
        <ele>1732</ele>
        <time>2013-10-07T14:54:50Z</time>
      </trkpt>
      <trkpt lat="45.12799" lon="5.88134">
        <ele>1733</ele>
        <time>2013-10-07T14:54:52Z</time>
      </trkpt>
      <trkpt lat="45.12802" lon="5.88136">
        <ele>1733</ele>
        <time>2013-10-07T14:54:55Z</time>
      </trkpt>
      <trkpt lat="45.12804" lon="5.8814">
        <ele>1734</ele>
        <time>2013-10-07T14:54:58Z</time>
      </trkpt>
      <trkpt lat="45.12808" lon="5.88157">
        <ele>1736</ele>
        <time>2013-10-07T14:55:09Z</time>
      </trkpt>
      <trkpt lat="45.12811" lon="5.88177">
        <ele>1743</ele>
        <time>2013-10-07T14:55:21Z</time>
      </trkpt>
      <trkpt lat="45.12826" lon="5.88201">
        <ele>1745</ele>
        <time>2013-10-07T14:55:36Z</time>
      </trkpt>
      <trkpt lat="45.12839" lon="5.88216">
        <ele>1760</ele>
        <time>2013-10-07T14:55:49Z</time>
      </trkpt>
      <trkpt lat="45.12843" lon="5.88224">
        <ele>1761</ele>
        <time>2013-10-07T14:55:56Z</time>
      </trkpt>
      <trkpt lat="45.1285" lon="5.88231">
        <ele>1761</ele>
        <time>2013-10-07T14:56:04Z</time>
      </trkpt>
      <trkpt lat="45.12857" lon="5.88239">
        <ele>1763</ele>
        <time>2013-10-07T14:56:13Z</time>
      </trkpt>
      <trkpt lat="45.12863" lon="5.88247">
        <ele>1764</ele>
        <time>2013-10-07T14:56:21Z</time>
      </trkpt>
      <trkpt lat="45.12864" lon="5.88248">
        <ele>1764</ele>
        <time>2013-10-07T14:56:22Z</time>
      </trkpt>
      <trkpt lat="45.12869" lon="5.88255">
        <ele>1772</ele>
        <time>2013-10-07T14:56:30Z</time>
      </trkpt>
      <trkpt lat="45.12871" lon="5.8826">
        <ele>1773</ele>
        <time>2013-10-07T14:56:35Z</time>
      </trkpt>
      <trkpt lat="45.12873" lon="5.88265">
        <ele>1774</ele>
        <time>2013-10-07T14:56:40Z</time>
      </trkpt>
      <trkpt lat="45.12874" lon="5.88274">
        <ele>1774</ele>
        <time>2013-10-07T14:56:47Z</time>
      </trkpt>
      <trkpt lat="45.12876" lon="5.88283">
        <ele>1775</ele>
        <time>2013-10-07T14:56:55Z</time>
      </trkpt>
      <trkpt lat="45.12877" lon="5.88285">
        <ele>1776</ele>
        <time>2013-10-07T14:56:57Z</time>
      </trkpt>
      <trkpt lat="45.12877" lon="5.88294">
        <ele>1776</ele>
        <time>2013-10-07T14:57:04Z</time>
      </trkpt>
      <trkpt lat="45.12877" lon="5.88296">
        <ele>1776</ele>
        <time>2013-10-07T14:57:06Z</time>
      </trkpt>
      <trkpt lat="45.12876" lon="5.88304">
        <ele>1777</ele>
        <time>2013-10-07T14:57:12Z</time>
      </trkpt>
      <trkpt lat="45.12871" lon="5.88323">
        <ele>1776</ele>
        <time>2013-10-07T14:57:25Z</time>
      </trkpt>
      <trkpt lat="45.12867" lon="5.88331">
        <ele>1776</ele>
        <time>2013-10-07T14:57:30Z</time>
      </trkpt>
      <trkpt lat="45.12854" lon="5.88359">
        <ele>1782</ele>
        <time>2013-10-07T14:57:48Z</time>
      </trkpt>
      <trkpt lat="45.12848" lon="5.8837">
        <ele>1783</ele>
        <time>2013-10-07T14:57:57Z</time>
      </trkpt>
      <trkpt lat="45.1284" lon="5.88385">
        <ele>1784</ele>
        <time>2013-10-07T14:58:08Z</time>
      </trkpt>
      <trkpt lat="45.12826" lon="5.88409">
        <ele>1781</ele>
        <time>2013-10-07T14:58:25Z</time>
      </trkpt>
      <trkpt lat="45.1282" lon="5.88419">
        <ele>1788</ele>
        <time>2013-10-07T14:58:33Z</time>
      </trkpt>
      <trkpt lat="45.12818" lon="5.88422">
        <ele>1789</ele>
        <time>2013-10-07T14:58:36Z</time>
      </trkpt>
      <trkpt lat="45.1281" lon="5.88433">
        <ele>1791</ele>
        <time>2013-10-07T14:58:49Z</time>
      </trkpt>
      <trkpt lat="45.128" lon="5.88445">
        <ele>1793</ele>
        <time>2013-10-07T14:59:00Z</time>
      </trkpt>
      <trkpt lat="45.12798" lon="5.88447">
        <ele>1794</ele>
        <time>2013-10-07T14:59:02Z</time>
      </trkpt>
      <trkpt lat="45.12782" lon="5.88465">
        <ele>1796</ele>
        <time>2013-10-07T14:59:17Z</time>
      </trkpt>
      <trkpt lat="45.12775" lon="5.88486">
        <ele>1798</ele>
        <time>2013-10-07T14:59:30Z</time>
      </trkpt>
      <trkpt lat="45.12768" lon="5.885">
        <ele>1800</ele>
        <time>2013-10-07T14:59:40Z</time>
      </trkpt>
      <trkpt lat="45.12766" lon="5.88503">
        <ele>1809</ele>
        <time>2013-10-07T14:59:42Z</time>
      </trkpt>
      <trkpt lat="45.12764" lon="5.88517">
        <ele>1811</ele>
        <time>2013-10-07T14:59:51Z</time>
      </trkpt>
      <trkpt lat="45.12764" lon="5.8852">
        <ele>1811</ele>
        <time>2013-10-07T14:59:53Z</time>
      </trkpt>
      <trkpt lat="45.12754" lon="5.88534">
        <ele>1813</ele>
        <time>2013-10-07T15:00:05Z</time>
      </trkpt>
      <trkpt lat="45.12742" lon="5.88549">
        <ele>1807</ele>
        <time>2013-10-07T15:00:17Z</time>
      </trkpt>
      <trkpt lat="45.1274" lon="5.88553">
        <ele>1807</ele>
        <time>2013-10-07T15:00:23Z</time>
      </trkpt>
      <trkpt lat="45.12737" lon="5.88561">
        <ele>1808</ele>
        <time>2013-10-07T15:00:40Z</time>
      </trkpt>
      <trkpt lat="45.12738" lon="5.88562">
        <ele>1809</ele>
        <time>2013-10-07T15:01:00Z</time>
      </trkpt>
      <trkpt lat="45.12738" lon="5.8856">
        <ele>1808</ele>
        <time>2013-10-07T15:01:28Z</time>
      </trkpt>
      <trkpt lat="45.12735" lon="5.88571">
        <ele>1810</ele>
        <time>2013-10-07T15:01:47Z</time>
      </trkpt>
      <trkpt lat="45.12733" lon="5.88593">
        <ele>1814</ele>
        <time>2013-10-07T15:01:59Z</time>
      </trkpt>
      <trkpt lat="45.12728" lon="5.88619">
        <ele>1814</ele>
        <time>2013-10-07T15:02:12Z</time>
      </trkpt>
      <trkpt lat="45.12723" lon="5.88654">
        <ele>1816</ele>
        <time>2013-10-07T15:02:29Z</time>
      </trkpt>
      <trkpt lat="45.12729" lon="5.88696">
        <ele>1820</ele>
        <time>2013-10-07T15:02:49Z</time>
      </trkpt>
      <trkpt lat="45.1274" lon="5.88736">
        <ele>1823</ele>
        <time>2013-10-07T15:03:07Z</time>
      </trkpt>
      <trkpt lat="45.12748" lon="5.88772">
        <ele>1824</ele>
        <time>2013-10-07T15:03:24Z</time>
      </trkpt>
      <trkpt lat="45.1276" lon="5.8881">
        <ele>1829</ele>
        <time>2013-10-07T15:03:42Z</time>
      </trkpt>
      <trkpt lat="45.12771" lon="5.88852">
        <ele>1825</ele>
        <time>2013-10-07T15:04:03Z</time>
      </trkpt>
      <trkpt lat="45.12762" lon="5.88884">
        <ele>1825</ele>
        <time>2013-10-07T15:04:20Z</time>
      </trkpt>
      <trkpt lat="45.12755" lon="5.88894">
        <ele>1826</ele>
        <time>2013-10-07T15:04:27Z</time>
      </trkpt>
      <trkpt lat="45.12747" lon="5.88896">
        <ele>1830</ele>
        <time>2013-10-07T15:04:33Z</time>
      </trkpt>
      <trkpt lat="45.12744" lon="5.88899">
        <ele>1830</ele>
        <time>2013-10-07T15:04:36Z</time>
      </trkpt>
      <trkpt lat="45.12743" lon="5.88911">
        <ele>1830</ele>
        <time>2013-10-07T15:04:44Z</time>
      </trkpt>
      <trkpt lat="45.12743" lon="5.88924">
        <ele>1835</ele>
        <time>2013-10-07T15:04:53Z</time>
      </trkpt>
      <trkpt lat="45.12744" lon="5.88928">
        <ele>1836</ele>
        <time>2013-10-07T15:04:56Z</time>
      </trkpt>
      <trkpt lat="45.12741" lon="5.88939">
        <ele>1839</ele>
        <time>2013-10-07T15:05:05Z</time>
      </trkpt>
      <trkpt lat="45.1274" lon="5.88943">
        <ele>1840</ele>
        <time>2013-10-07T15:05:08Z</time>
      </trkpt>
      <trkpt lat="45.12736" lon="5.88955">
        <ele>1842</ele>
        <time>2013-10-07T15:05:18Z</time>
      </trkpt>
      <trkpt lat="45.12734" lon="5.88965">
        <ele>1843</ele>
        <time>2013-10-07T15:05:26Z</time>
      </trkpt>
      <trkpt lat="45.12724" lon="5.88985">
        <ele>1845</ele>
        <time>2013-10-07T15:05:40Z</time>
      </trkpt>
      <trkpt lat="45.12715" lon="5.88998">
        <ele>1846</ele>
        <time>2013-10-07T15:05:51Z</time>
      </trkpt>
      <trkpt lat="45.12711" lon="5.89003">
        <ele>1856</ele>
        <time>2013-10-07T15:05:55Z</time>
      </trkpt>
      <trkpt lat="45.12704" lon="5.89016">
        <ele>1857</ele>
        <time>2013-10-07T15:06:06Z</time>
      </trkpt>
      <trkpt lat="45.12701" lon="5.89022">
        <ele>1858</ele>
        <time>2013-10-07T15:06:22Z</time>
      </trkpt>
      <trkpt lat="45.12701" lon="5.89025">
        <ele>1858</ele>
        <time>2013-10-07T15:06:24Z</time>
      </trkpt>
      <trkpt lat="45.12704" lon="5.89034">
        <ele>1859</ele>
        <time>2013-10-07T15:06:29Z</time>
      </trkpt>
      <trkpt lat="45.12719" lon="5.89062">
        <ele>1859</ele>
        <time>2013-10-07T15:06:47Z</time>
      </trkpt>
      <trkpt lat="45.12726" lon="5.89087">
        <ele>1867</ele>
        <time>2013-10-07T15:07:02Z</time>
      </trkpt>
      <trkpt lat="45.12724" lon="5.89096">
        <ele>1868</ele>
        <time>2013-10-07T15:07:08Z</time>
      </trkpt>
      <trkpt lat="45.12726" lon="5.89105">
        <ele>1869</ele>
        <time>2013-10-07T15:07:13Z</time>
      </trkpt>
      <trkpt lat="45.12729" lon="5.89117">
        <ele>1871</ele>
        <time>2013-10-07T15:07:22Z</time>
      </trkpt>
      <trkpt lat="45.1273" lon="5.89127">
        <ele>1872</ele>
        <time>2013-10-07T15:07:31Z</time>
      </trkpt>
      <trkpt lat="45.12734" lon="5.89144">
        <ele>1873</ele>
        <time>2013-10-07T15:07:43Z</time>
      </trkpt>
      <trkpt lat="45.12735" lon="5.89145">
        <ele>1873</ele>
        <time>2013-10-07T15:07:44Z</time>
      </trkpt>
      <trkpt lat="45.12737" lon="5.89163">
        <ele>1873</ele>
        <time>2013-10-07T15:07:59Z</time>
      </trkpt>
      <trkpt lat="45.12738" lon="5.89164">
        <ele>1873</ele>
        <time>2013-10-07T15:08:04Z</time>
      </trkpt>
      <trkpt lat="45.12743" lon="5.89177">
        <ele>1881</ele>
        <time>2013-10-07T15:08:14Z</time>
      </trkpt>
      <trkpt lat="45.12746" lon="5.89189">
        <ele>1885</ele>
        <time>2013-10-07T15:08:24Z</time>
      </trkpt>
      <trkpt lat="45.12751" lon="5.892">
        <ele>1873</ele>
        <time>2013-10-07T15:08:34Z</time>
      </trkpt>
      <trkpt lat="45.12747" lon="5.8921">
        <ele>1891</ele>
        <time>2013-10-07T15:08:44Z</time>
      </trkpt>
      <trkpt lat="45.12748" lon="5.8922">
        <ele>1893</ele>
        <time>2013-10-07T15:08:53Z</time>
      </trkpt>
      <trkpt lat="45.12748" lon="5.8923">
        <ele>1894</ele>
        <time>2013-10-07T15:09:03Z</time>
      </trkpt>
      <trkpt lat="45.12747" lon="5.89239">
        <ele>1896</ele>
        <time>2013-10-07T15:09:13Z</time>
      </trkpt>
      <trkpt lat="45.12743" lon="5.8925">
        <ele>1901</ele>
        <time>2013-10-07T15:09:25Z</time>
      </trkpt>
      <trkpt lat="45.12743" lon="5.89259">
        <ele>1903</ele>
        <time>2013-10-07T15:09:34Z</time>
      </trkpt>
      <trkpt lat="45.12741" lon="5.89269">
        <ele>1907</ele>
        <time>2013-10-07T15:09:44Z</time>
      </trkpt>
      <trkpt lat="45.1274" lon="5.89281">
        <ele>1910</ele>
        <time>2013-10-07T15:09:54Z</time>
      </trkpt>
      <trkpt lat="45.12736" lon="5.89295">
        <ele>1912</ele>
        <time>2013-10-07T15:10:05Z</time>
      </trkpt>
      <trkpt lat="45.12731" lon="5.89302">
        <ele>1914</ele>
        <time>2013-10-07T15:10:14Z</time>
      </trkpt>
      <trkpt lat="45.1273" lon="5.89313">
        <ele>1915</ele>
        <time>2013-10-07T15:10:24Z</time>
      </trkpt>
      <trkpt lat="45.12738" lon="5.8933">
        <ele>1917</ele>
        <time>2013-10-07T15:10:36Z</time>
      </trkpt>
      <trkpt lat="45.12745" lon="5.89337">
        <ele>1921</ele>
        <time>2013-10-07T15:10:44Z</time>
      </trkpt>
      <trkpt lat="45.1276" lon="5.89362">
        <ele>1917</ele>
        <time>2013-10-07T15:11:00Z</time>
      </trkpt>
      <trkpt lat="45.12769" lon="5.89378">
        <ele>1918</ele>
        <time>2013-10-07T15:11:10Z</time>
      </trkpt>
      <trkpt lat="45.12783" lon="5.89402">
        <ele>1918</ele>
        <time>2013-10-07T15:11:25Z</time>
      </trkpt>
      <trkpt lat="45.12785" lon="5.89404">
        <ele>1918</ele>
        <time>2013-10-07T15:11:27Z</time>
      </trkpt>
      <trkpt lat="45.12786" lon="5.89415">
        <ele>1918</ele>
        <time>2013-10-07T15:11:34Z</time>
      </trkpt>
      <trkpt lat="45.12785" lon="5.89419">
        <ele>1926</ele>
        <time>2013-10-07T15:11:36Z</time>
      </trkpt>
      <trkpt lat="45.12783" lon="5.8944">
        <ele>1927</ele>
        <time>2013-10-07T15:11:47Z</time>
      </trkpt>
      <trkpt lat="45.12788" lon="5.8946">
        <ele>1928</ele>
        <time>2013-10-07T15:11:56Z</time>
      </trkpt>
      <trkpt lat="45.128" lon="5.89493">
        <ele>1928</ele>
        <time>2013-10-07T15:12:13Z</time>
      </trkpt>
      <trkpt lat="45.12799" lon="5.89503">
        <ele>1937</ele>
        <time>2013-10-07T15:12:18Z</time>
      </trkpt>
      <trkpt lat="45.12798" lon="5.8951">
        <ele>1937</ele>
        <time>2013-10-07T15:12:32Z</time>
      </trkpt>
      <trkpt lat="45.12799" lon="5.89513">
        <ele>1937</ele>
        <time>2013-10-07T15:13:00Z</time>
      </trkpt>
      <trkpt lat="45.12801" lon="5.89515">
        <ele>1937</ele>
        <time>2013-10-07T15:13:04Z</time>
      </trkpt>
      <trkpt lat="45.12809" lon="5.89539">
        <ele>1939</ele>
        <time>2013-10-07T15:13:16Z</time>
      </trkpt>
      <trkpt lat="45.12812" lon="5.8956">
        <ele>1940</ele>
        <time>2013-10-07T15:13:27Z</time>
      </trkpt>
      <trkpt lat="45.12816" lon="5.89571">
        <ele>1939</ele>
        <time>2013-10-07T15:13:35Z</time>
      </trkpt>
      <trkpt lat="45.12829" lon="5.89584">
        <ele>1939</ele>
        <time>2013-10-07T15:13:45Z</time>
      </trkpt>
      <trkpt lat="45.12845" lon="5.89617">
        <ele>1940</ele>
        <time>2013-10-07T15:14:04Z</time>
      </trkpt>
      <trkpt lat="45.12849" lon="5.89641">
        <ele>1943</ele>
        <time>2013-10-07T15:14:16Z</time>
      </trkpt>
      <trkpt lat="45.12852" lon="5.89655">
        <ele>1945</ele>
        <time>2013-10-07T15:14:24Z</time>
      </trkpt>
      <trkpt lat="45.12857" lon="5.89668">
        <ele>1955</ele>
        <time>2013-10-07T15:14:33Z</time>
      </trkpt>
      <trkpt lat="45.12864" lon="5.8968">
        <ele>1955</ele>
        <time>2013-10-07T15:14:43Z</time>
      </trkpt>
      <trkpt lat="45.12875" lon="5.89693">
        <ele>1955</ele>
        <time>2013-10-07T15:14:54Z</time>
      </trkpt>
      <trkpt lat="45.12889" lon="5.89719">
        <ele>1956</ele>
        <time>2013-10-07T15:15:10Z</time>
      </trkpt>
      <trkpt lat="45.12906" lon="5.89755">
        <ele>1960</ele>
        <time>2013-10-07T15:15:30Z</time>
      </trkpt>
      <trkpt lat="45.12928" lon="5.89784">
        <ele>1945</ele>
        <time>2013-10-07T15:15:49Z</time>
      </trkpt>
      <trkpt lat="45.12939" lon="5.89809">
        <ele>1946</ele>
        <time>2013-10-07T15:16:02Z</time>
      </trkpt>
      <trkpt lat="45.12949" lon="5.89842">
        <ele>1955</ele>
        <time>2013-10-07T15:16:18Z</time>
      </trkpt>
      <trkpt lat="45.12961" lon="5.89877">
        <ele>1956</ele>
        <time>2013-10-07T15:16:35Z</time>
      </trkpt>
      <trkpt lat="45.12981" lon="5.89902">
        <ele>1953</ele>
        <time>2013-10-07T15:16:51Z</time>
      </trkpt>
      <trkpt lat="45.12993" lon="5.89928">
        <ele>1957</ele>
        <time>2013-10-07T15:17:05Z</time>
      </trkpt>
      <trkpt lat="45.13002" lon="5.89959">
        <ele>1940</ele>
        <time>2013-10-07T15:17:20Z</time>
      </trkpt>
      <trkpt lat="45.13006" lon="5.89994">
        <ele>1948</ele>
        <time>2013-10-07T15:17:36Z</time>
      </trkpt>
      <trkpt lat="45.13008" lon="5.90027">
        <ele>1944</ele>
        <time>2013-10-07T15:17:51Z</time>
      </trkpt>
      <trkpt lat="45.1301" lon="5.90054">
        <ele>1945</ele>
        <time>2013-10-07T15:18:04Z</time>
      </trkpt>
      <trkpt lat="45.13006" lon="5.90073">
        <ele>1951</ele>
        <time>2013-10-07T15:18:15Z</time>
      </trkpt>
      <trkpt lat="45.13006" lon="5.90074">
        <ele>1952</ele>
        <time>2013-10-07T15:18:16Z</time>
      </trkpt>
      <trkpt lat="45.13004" lon="5.90082">
        <ele>1956</ele>
        <time>2013-10-07T15:18:21Z</time>
      </trkpt>
      <trkpt lat="45.13002" lon="5.90088">
        <ele>1956</ele>
        <time>2013-10-07T15:18:25Z</time>
      </trkpt>
      <trkpt lat="45.13001" lon="5.90113">
        <ele>1952</ele>
        <time>2013-10-07T15:18:38Z</time>
      </trkpt>
      <trkpt lat="45.12997" lon="5.90132">
        <ele>1993</ele>
        <time>2013-10-07T15:18:53Z</time>
      </trkpt>
      <trkpt lat="45.12997" lon="5.90141">
        <ele>1991</ele>
        <time>2013-10-07T15:19:20Z</time>
      </trkpt>
      <trkpt lat="45.12998" lon="5.90143">
        <ele>1990</ele>
        <time>2013-10-07T15:19:39Z</time>
      </trkpt>
      <trkpt lat="45.12997" lon="5.90163">
        <ele>1975</ele>
        <time>2013-10-07T15:19:50Z</time>
      </trkpt>
      <trkpt lat="45.12997" lon="5.90181">
        <ele>1990</ele>
        <time>2013-10-07T15:20:05Z</time>
      </trkpt>
      <trkpt lat="45.12997" lon="5.90189">
        <ele>1996</ele>
        <time>2013-10-07T15:20:10Z</time>
      </trkpt>
      <trkpt lat="45.13008" lon="5.90213">
        <ele>1968</ele>
        <time>2013-10-07T15:20:26Z</time>
      </trkpt>
      <trkpt lat="45.1301" lon="5.90217">
        <ele>1969</ele>
        <time>2013-10-07T15:20:38Z</time>
      </trkpt>
      <trkpt lat="45.13015" lon="5.9023">
        <ele>1971</ele>
        <time>2013-10-07T15:20:51Z</time>
      </trkpt>
      <trkpt lat="45.1302" lon="5.90236">
        <ele>1971</ele>
        <time>2013-10-07T15:21:01Z</time>
      </trkpt>
      <trkpt lat="45.13021" lon="5.90237">
        <ele>1971</ele>
        <time>2013-10-07T15:21:03Z</time>
      </trkpt>
      <trkpt lat="45.13031" lon="5.90259">
        <ele>1990</ele>
        <time>2013-10-07T15:21:14Z</time>
      </trkpt>
      <trkpt lat="45.13037" lon="5.90264">
        <ele>1990</ele>
        <time>2013-10-07T15:21:24Z</time>
      </trkpt>
      <trkpt lat="45.13048" lon="5.90276">
        <ele>1991</ele>
        <time>2013-10-07T15:21:44Z</time>
      </trkpt>
      <trkpt lat="45.13068" lon="5.90296">
        <ele>1994</ele>
        <time>2013-10-07T15:22:04Z</time>
      </trkpt>
      <trkpt lat="45.13066" lon="5.90295">
        <ele>1993</ele>
        <time>2013-10-07T15:22:17Z</time>
      </trkpt>
      <trkpt lat="45.13067" lon="5.90298">
        <ele>1994</ele>
        <time>2013-10-07T15:22:22Z</time>
      </trkpt>
      <trkpt lat="45.13071" lon="5.90314">
        <ele>1998</ele>
        <time>2013-10-07T15:22:36Z</time>
      </trkpt>
      <trkpt lat="45.13081" lon="5.90317">
        <ele>1998</ele>
        <time>2013-10-07T15:22:44Z</time>
      </trkpt>
      <trkpt lat="45.13085" lon="5.90327">
        <ele>1995</ele>
        <time>2013-10-07T15:22:52Z</time>
      </trkpt>
      <trkpt lat="45.13086" lon="5.9033">
        <ele>1996</ele>
        <time>2013-10-07T15:22:54Z</time>
      </trkpt>
      <trkpt lat="45.13088" lon="5.90344">
        <ele>2003</ele>
        <time>2013-10-07T15:23:06Z</time>
      </trkpt>
      <trkpt lat="45.13094" lon="5.90363">
        <ele>2005</ele>
        <time>2013-10-07T15:23:19Z</time>
      </trkpt>
      <trkpt lat="45.13096" lon="5.90374">
        <ele>2008</ele>
        <time>2013-10-07T15:23:29Z</time>
      </trkpt>
      <trkpt lat="45.13096" lon="5.90377">
        <ele>2009</ele>
        <time>2013-10-07T15:23:32Z</time>
      </trkpt>
      <trkpt lat="45.13096" lon="5.90387">
        <ele>2013</ele>
        <time>2013-10-07T15:23:40Z</time>
      </trkpt>
      <trkpt lat="45.13097" lon="5.9039">
        <ele>2014</ele>
        <time>2013-10-07T15:23:43Z</time>
      </trkpt>
      <trkpt lat="45.13106" lon="5.90419">
        <ele>2031</ele>
        <time>2013-10-07T15:24:06Z</time>
      </trkpt>
      <trkpt lat="45.13109" lon="5.90429">
        <ele>2030</ele>
        <time>2013-10-07T15:24:15Z</time>
      </trkpt>
      <trkpt lat="45.13113" lon="5.90455">
        <ele>2029</ele>
        <time>2013-10-07T15:24:33Z</time>
      </trkpt>
      <trkpt lat="45.13111" lon="5.90459">
        <ele>2030</ele>
        <time>2013-10-07T15:24:38Z</time>
      </trkpt>
      <trkpt lat="45.13108" lon="5.90468">
        <ele>2033</ele>
        <time>2013-10-07T15:24:43Z</time>
      </trkpt>
      <trkpt lat="45.13112" lon="5.90484">
        <ele>2034</ele>
        <time>2013-10-07T15:24:51Z</time>
      </trkpt>
      <trkpt lat="45.13118" lon="5.90504">
        <ele>2044</ele>
        <time>2013-10-07T15:25:04Z</time>
      </trkpt>
      <trkpt lat="45.13124" lon="5.90526">
        <ele>2042</ele>
        <time>2013-10-07T15:25:18Z</time>
      </trkpt>
      <trkpt lat="45.13128" lon="5.90539">
        <ele>2042</ele>
        <time>2013-10-07T15:25:25Z</time>
      </trkpt>
      <trkpt lat="45.13132" lon="5.90546">
        <ele>2041</ele>
        <time>2013-10-07T15:25:39Z</time>
      </trkpt>
      <trkpt lat="45.13136" lon="5.90556">
        <ele>2040</ele>
        <time>2013-10-07T15:25:49Z</time>
      </trkpt>
      <trkpt lat="45.1314" lon="5.90562">
        <ele>2039</ele>
        <time>2013-10-07T15:25:59Z</time>
      </trkpt>
      <trkpt lat="45.13141" lon="5.9057">
        <ele>2038</ele>
        <time>2013-10-07T15:26:07Z</time>
      </trkpt>
      <trkpt lat="45.13141" lon="5.90578">
        <ele>2038</ele>
        <time>2013-10-07T15:26:15Z</time>
      </trkpt>
      <trkpt lat="45.13143" lon="5.90586">
        <ele>2043</ele>
        <time>2013-10-07T15:26:23Z</time>
      </trkpt>
      <trkpt lat="45.13143" lon="5.90588">
        <ele>2043</ele>
        <time>2013-10-07T15:26:25Z</time>
      </trkpt>
      <trkpt lat="45.13141" lon="5.90596">
        <ele>2045</ele>
        <time>2013-10-07T15:26:35Z</time>
      </trkpt>
      <trkpt lat="45.13146" lon="5.90603">
        <ele>2044</ele>
        <time>2013-10-07T15:26:46Z</time>
      </trkpt>
      <trkpt lat="45.1315" lon="5.90613">
        <ele>2045</ele>
        <time>2013-10-07T15:26:55Z</time>
      </trkpt>
      <trkpt lat="45.13155" lon="5.90634">
        <ele>2044</ele>
        <time>2013-10-07T15:27:08Z</time>
      </trkpt>
      <trkpt lat="45.13158" lon="5.90637">
        <ele>2042</ele>
        <time>2013-10-07T15:27:11Z</time>
      </trkpt>
      <trkpt lat="45.13157" lon="5.90647">
        <ele>2040</ele>
        <time>2013-10-07T15:27:26Z</time>
      </trkpt>
      <trkpt lat="45.13158" lon="5.90645">
        <ele>2040</ele>
        <time>2013-10-07T15:27:54Z</time>
      </trkpt>
      <trkpt lat="45.13156" lon="5.90649">
        <ele>2040</ele>
        <time>2013-10-07T15:28:24Z</time>
      </trkpt>
      <trkpt lat="45.13153" lon="5.90657">
        <ele>2038</ele>
        <time>2013-10-07T15:28:33Z</time>
      </trkpt>
      <trkpt lat="45.13153" lon="5.90663">
        <ele>2036</ele>
        <time>2013-10-07T15:28:39Z</time>
      </trkpt>
      <trkpt lat="45.13154" lon="5.90673">
        <ele>2037</ele>
        <time>2013-10-07T15:28:51Z</time>
      </trkpt>
      <trkpt lat="45.13154" lon="5.90674">
        <ele>2037</ele>
        <time>2013-10-07T15:28:52Z</time>
      </trkpt>
      <trkpt lat="45.13153" lon="5.90678">
        <ele>2040</ele>
        <time>2013-10-07T15:29:18Z</time>
      </trkpt>
      <trkpt lat="45.13156" lon="5.90688">
        <ele>2042</ele>
        <time>2013-10-07T15:29:38Z</time>
      </trkpt>
      <trkpt lat="45.13156" lon="5.90696">
        <ele>2045</ele>
        <time>2013-10-07T15:29:43Z</time>
      </trkpt>
      <trkpt lat="45.13156" lon="5.90706">
        <ele>2046</ele>
        <time>2013-10-07T15:29:50Z</time>
      </trkpt>
      <trkpt lat="45.13157" lon="5.9071">
        <ele>2046</ele>
        <time>2013-10-07T15:29:53Z</time>
      </trkpt>
      <trkpt lat="45.13158" lon="5.90725">
        <ele>2043</ele>
        <time>2013-10-07T15:30:06Z</time>
      </trkpt>
      <trkpt lat="45.13157" lon="5.90738">
        <ele>2039</ele>
        <time>2013-10-07T15:30:21Z</time>
      </trkpt>
      <trkpt lat="45.13161" lon="5.90754">
        <ele>2030</ele>
        <time>2013-10-07T15:30:41Z</time>
      </trkpt>
      <trkpt lat="45.13161" lon="5.90768">
        <ele>2039</ele>
        <time>2013-10-07T15:30:54Z</time>
      </trkpt>
      <trkpt lat="45.13164" lon="5.90785">
        <ele>2043</ele>
        <time>2013-10-07T15:31:10Z</time>
      </trkpt>
      <trkpt lat="45.1317" lon="5.90795">
        <ele>2016</ele>
        <time>2013-10-07T15:31:27Z</time>
      </trkpt>
      <trkpt lat="45.13174" lon="5.90808">
        <ele>2017</ele>
        <time>2013-10-07T15:31:46Z</time>
      </trkpt>
      <trkpt lat="45.13171" lon="5.90816">
        <ele>2019</ele>
        <time>2013-10-07T15:31:55Z</time>
      </trkpt>
      <trkpt lat="45.13173" lon="5.90828">
        <ele>2023</ele>
        <time>2013-10-07T15:32:10Z</time>
      </trkpt>
      <trkpt lat="45.1317" lon="5.90837">
        <ele>2026</ele>
        <time>2013-10-07T15:32:36Z</time>
      </trkpt>
      <trkpt lat="45.13175" lon="5.90857">
        <ele>2021</ele>
        <time>2013-10-07T15:32:54Z</time>
      </trkpt>
      <trkpt lat="45.1318" lon="5.90861">
        <ele>2020</ele>
        <time>2013-10-07T15:32:58Z</time>
      </trkpt>
      <trkpt lat="45.13182" lon="5.90867">
        <ele>2020</ele>
        <time>2013-10-07T15:33:02Z</time>
      </trkpt>
      <trkpt lat="45.13183" lon="5.9088">
        <ele>2020</ele>
        <time>2013-10-07T15:33:18Z</time>
      </trkpt>
      <trkpt lat="45.13185" lon="5.90887">
        <ele>2020</ele>
        <time>2013-10-07T15:33:25Z</time>
      </trkpt>
      <trkpt lat="45.13183" lon="5.90899">
        <ele>2021</ele>
        <time>2013-10-07T15:33:32Z</time>
      </trkpt>
      <trkpt lat="45.13186" lon="5.9092">
        <ele>2024</ele>
        <time>2013-10-07T15:33:44Z</time>
      </trkpt>
      <trkpt lat="45.13185" lon="5.90925">
        <ele>2024</ele>
        <time>2013-10-07T15:33:48Z</time>
      </trkpt>
      <trkpt lat="45.13183" lon="5.90937">
        <ele>2024</ele>
        <time>2013-10-07T15:33:56Z</time>
      </trkpt>
      <trkpt lat="45.1318" lon="5.90952">
        <ele>2024</ele>
        <time>2013-10-07T15:34:05Z</time>
      </trkpt>
      <trkpt lat="45.13178" lon="5.90973">
        <ele>2024</ele>
        <time>2013-10-07T15:34:16Z</time>
      </trkpt>
      <trkpt lat="45.13175" lon="5.90993">
        <ele>2026</ele>
        <time>2013-10-07T15:34:28Z</time>
      </trkpt>
      <trkpt lat="45.13175" lon="5.90999">
        <ele>2026</ele>
        <time>2013-10-07T15:34:31Z</time>
      </trkpt>
      <trkpt lat="45.13175" lon="5.9101">
        <ele>2026</ele>
        <time>2013-10-07T15:34:46Z</time>
      </trkpt>
      <trkpt lat="45.13175" lon="5.91011">
        <ele>2026</ele>
        <time>2013-10-07T15:35:15Z</time>
      </trkpt>
      <trkpt lat="45.13176" lon="5.91012">
        <ele>2025</ele>
        <time>2013-10-07T15:35:17Z</time>
      </trkpt>
      <trkpt lat="45.13182" lon="5.91019">
        <ele>2024</ele>
        <time>2013-10-07T15:35:35Z</time>
      </trkpt>
      <trkpt lat="45.13182" lon="5.91021">
        <ele>2024</ele>
        <time>2013-10-07T15:35:36Z</time>
      </trkpt>
      <trkpt lat="45.13183" lon="5.91028">
        <ele>2024</ele>
        <time>2013-10-07T15:35:42Z</time>
      </trkpt>
      <trkpt lat="45.13186" lon="5.91034">
        <ele>2023</ele>
        <time>2013-10-07T15:35:47Z</time>
      </trkpt>
      <trkpt lat="45.13186" lon="5.91041">
        <ele>2023</ele>
        <time>2013-10-07T15:35:51Z</time>
      </trkpt>
      <trkpt lat="45.13188" lon="5.9105">
        <ele>2023</ele>
        <time>2013-10-07T15:35:57Z</time>
      </trkpt>
      <trkpt lat="45.13189" lon="5.91053">
        <ele>2022</ele>
        <time>2013-10-07T15:36:00Z</time>
      </trkpt>
      <trkpt lat="45.13189" lon="5.91061">
        <ele>2022</ele>
        <time>2013-10-07T15:36:04Z</time>
      </trkpt>
      <trkpt lat="45.13189" lon="5.91083">
        <ele>2022</ele>
        <time>2013-10-07T15:36:17Z</time>
      </trkpt>
      <trkpt lat="45.13187" lon="5.91095">
        <ele>2018</ele>
        <time>2013-10-07T15:36:23Z</time>
      </trkpt>
      <trkpt lat="45.13185" lon="5.91096">
        <ele>2018</ele>
        <time>2013-10-07T15:36:25Z</time>
      </trkpt>
      <trkpt lat="45.13184" lon="5.911">
        <ele>2017</ele>
        <time>2013-10-07T15:36:39Z</time>
      </trkpt>
      <trkpt lat="45.13185" lon="5.91105">
        <ele>2017</ele>
        <time>2013-10-07T15:37:12Z</time>
      </trkpt>
      <trkpt lat="45.13184" lon="5.91109">
        <ele>2016</ele>
        <time>2013-10-07T15:37:14Z</time>
      </trkpt>
      <trkpt lat="45.1318" lon="5.91114">
        <ele>2016</ele>
        <time>2013-10-07T15:37:19Z</time>
      </trkpt>
      <trkpt lat="45.13178" lon="5.91121">
        <ele>2015</ele>
        <time>2013-10-07T15:37:25Z</time>
      </trkpt>
      <trkpt lat="45.13175" lon="5.91125">
        <ele>2015</ele>
        <time>2013-10-07T15:37:29Z</time>
      </trkpt>
      <trkpt lat="45.13175" lon="5.91128">
        <ele>2014</ele>
        <time>2013-10-07T15:37:31Z</time>
      </trkpt>
      <trkpt lat="45.13172" lon="5.91135">
        <ele>2013</ele>
        <time>2013-10-07T15:37:35Z</time>
      </trkpt>
      <trkpt lat="45.1317" lon="5.91143">
        <ele>2012</ele>
        <time>2013-10-07T15:37:39Z</time>
      </trkpt>
      <trkpt lat="45.13169" lon="5.91147">
        <ele>2012</ele>
        <time>2013-10-07T15:37:41Z</time>
      </trkpt>
      <trkpt lat="45.13161" lon="5.91155">
        <ele>2013</ele>
        <time>2013-10-07T15:37:48Z</time>
      </trkpt>
      <trkpt lat="45.13158" lon="5.9117">
        <ele>2006</ele>
        <time>2013-10-07T15:37:55Z</time>
      </trkpt>
      <trkpt lat="45.13161" lon="5.9118">
        <ele>2006</ele>
        <time>2013-10-07T15:38:02Z</time>
      </trkpt>
      <trkpt lat="45.13161" lon="5.91187">
        <ele>2005</ele>
        <time>2013-10-07T15:38:06Z</time>
      </trkpt>
      <trkpt lat="45.13152" lon="5.91213">
        <ele>2002</ele>
        <time>2013-10-07T15:38:21Z</time>
      </trkpt>
      <trkpt lat="45.13143" lon="5.9122">
        <ele>2002</ele>
        <time>2013-10-07T15:38:30Z</time>
      </trkpt>
      <trkpt lat="45.13122" lon="5.91205">
        <ele>2004</ele>
        <time>2013-10-07T15:38:46Z</time>
      </trkpt>
      <trkpt lat="45.13112" lon="5.91201">
        <ele>2005</ele>
        <time>2013-10-07T15:38:54Z</time>
      </trkpt>
      <trkpt lat="45.131" lon="5.91205">
        <ele>2006</ele>
        <time>2013-10-07T15:39:03Z</time>
      </trkpt>
      <trkpt lat="45.13088" lon="5.91215">
        <ele>2004</ele>
        <time>2013-10-07T15:39:14Z</time>
      </trkpt>
      <trkpt lat="45.13079" lon="5.91227">
        <ele>2010</ele>
        <time>2013-10-07T15:39:24Z</time>
      </trkpt>
      <trkpt lat="45.13077" lon="5.91234">
        <ele>2008</ele>
        <time>2013-10-07T15:39:29Z</time>
      </trkpt>
      <trkpt lat="45.13067" lon="5.91245">
        <ele>2008</ele>
        <time>2013-10-07T15:39:39Z</time>
      </trkpt>
      <trkpt lat="45.13064" lon="5.91246">
        <ele>2009</ele>
        <time>2013-10-07T15:39:41Z</time>
      </trkpt>
      <trkpt lat="45.13061" lon="5.91254">
        <ele>2004</ele>
        <time>2013-10-07T15:39:46Z</time>
      </trkpt>
      <trkpt lat="45.13052" lon="5.91268">
        <ele>2006</ele>
        <time>2013-10-07T15:39:59Z</time>
      </trkpt>
      <trkpt lat="45.13049" lon="5.91277">
        <ele>2007</ele>
        <time>2013-10-07T15:40:24Z</time>
      </trkpt>
      <trkpt lat="45.13043" lon="5.91314">
        <ele>2007</ele>
        <time>2013-10-07T15:40:41Z</time>
      </trkpt>
      <trkpt lat="45.13036" lon="5.91346">
        <ele>2005</ele>
        <time>2013-10-07T15:40:54Z</time>
      </trkpt>
      <trkpt lat="45.13036" lon="5.91363">
        <ele>2005</ele>
        <time>2013-10-07T15:41:02Z</time>
      </trkpt>
      <trkpt lat="45.13031" lon="5.9139">
        <ele>2006</ele>
        <time>2013-10-07T15:41:14Z</time>
      </trkpt>
      <trkpt lat="45.13031" lon="5.91396">
        <ele>2006</ele>
        <time>2013-10-07T15:41:18Z</time>
      </trkpt>
      <trkpt lat="45.13034" lon="5.91402">
        <ele>2005</ele>
        <time>2013-10-07T15:41:21Z</time>
      </trkpt>
      <trkpt lat="45.13035" lon="5.9141">
        <ele>2006</ele>
        <time>2013-10-07T15:41:25Z</time>
      </trkpt>
      <trkpt lat="45.13036" lon="5.91418">
        <ele>2006</ele>
        <time>2013-10-07T15:41:30Z</time>
      </trkpt>
      <trkpt lat="45.13037" lon="5.91432">
        <ele>2005</ele>
        <time>2013-10-07T15:41:36Z</time>
      </trkpt>
      <trkpt lat="45.13036" lon="5.9145">
        <ele>2006</ele>
        <time>2013-10-07T15:41:44Z</time>
      </trkpt>
      <trkpt lat="45.13036" lon="5.91454">
        <ele>2006</ele>
        <time>2013-10-07T15:41:46Z</time>
      </trkpt>
      <trkpt lat="45.13036" lon="5.9146">
        <ele>2006</ele>
        <time>2013-10-07T15:41:50Z</time>
      </trkpt>
      <trkpt lat="45.13036" lon="5.91464">
        <ele>2006</ele>
        <time>2013-10-07T15:41:53Z</time>
      </trkpt>
      <trkpt lat="45.13037" lon="5.91476">
        <ele>2006</ele>
        <time>2013-10-07T15:41:59Z</time>
      </trkpt>
      <trkpt lat="45.1304" lon="5.91497">
        <ele>2006</ele>
        <time>2013-10-07T15:42:12Z</time>
      </trkpt>
      <trkpt lat="45.13041" lon="5.91502">
        <ele>2006</ele>
        <time>2013-10-07T15:42:26Z</time>
      </trkpt>
      <trkpt lat="45.13041" lon="5.91515">
        <ele>2006</ele>
        <time>2013-10-07T15:42:48Z</time>
      </trkpt>
      <trkpt lat="45.13042" lon="5.91524">
        <ele>2006</ele>
        <time>2013-10-07T15:42:52Z</time>
      </trkpt>
      <trkpt lat="45.13042" lon="5.9153">
        <ele>2006</ele>
        <time>2013-10-07T15:42:55Z</time>
      </trkpt>
      <trkpt lat="45.13046" lon="5.91538">
        <ele>2005</ele>
        <time>2013-10-07T15:42:59Z</time>
      </trkpt>
      <trkpt lat="45.13047" lon="5.9155">
        <ele>2005</ele>
        <time>2013-10-07T15:43:06Z</time>
      </trkpt>
      <trkpt lat="45.13049" lon="5.91556">
        <ele>2005</ele>
        <time>2013-10-07T15:43:09Z</time>
      </trkpt>
      <trkpt lat="45.13047" lon="5.91587">
        <ele>2005</ele>
        <time>2013-10-07T15:43:24Z</time>
      </trkpt>
      <trkpt lat="45.13035" lon="5.91614">
        <ele>2006</ele>
        <time>2013-10-07T15:43:39Z</time>
      </trkpt>
      <trkpt lat="45.13026" lon="5.91649">
        <ele>2008</ele>
        <time>2013-10-07T15:43:54Z</time>
      </trkpt>
      <trkpt lat="45.13024" lon="5.91674">
        <ele>2008</ele>
        <time>2013-10-07T15:44:05Z</time>
      </trkpt>
      <trkpt lat="45.13006" lon="5.91692">
        <ele>2008</ele>
        <time>2013-10-07T15:44:20Z</time>
      </trkpt>
      <trkpt lat="45.12995" lon="5.91709">
        <ele>2025</ele>
        <time>2013-10-07T15:44:32Z</time>
      </trkpt>
      <trkpt lat="45.12983" lon="5.91722">
        <ele>2025</ele>
        <time>2013-10-07T15:44:44Z</time>
      </trkpt>
      <trkpt lat="45.12977" lon="5.91729">
        <ele>2026</ele>
        <time>2013-10-07T15:44:51Z</time>
      </trkpt>
      <trkpt lat="45.12971" lon="5.9174">
        <ele>2026</ele>
        <time>2013-10-07T15:44:59Z</time>
      </trkpt>
      <trkpt lat="45.1297" lon="5.91743">
        <ele>2027</ele>
        <time>2013-10-07T15:45:02Z</time>
      </trkpt>
      <trkpt lat="45.12962" lon="5.91752">
        <ele>2028</ele>
        <time>2013-10-07T15:45:12Z</time>
      </trkpt>
      <trkpt lat="45.12956" lon="5.9176">
        <ele>2030</ele>
        <time>2013-10-07T15:45:21Z</time>
      </trkpt>
      <trkpt lat="45.12947" lon="5.91778">
        <ele>2031</ele>
        <time>2013-10-07T15:45:35Z</time>
      </trkpt>
      <trkpt lat="45.12939" lon="5.91789">
        <ele>2033</ele>
        <time>2013-10-07T15:45:44Z</time>
      </trkpt>
      <trkpt lat="45.12935" lon="5.91802">
        <ele>2034</ele>
        <time>2013-10-07T15:45:54Z</time>
      </trkpt>
      <trkpt lat="45.1293" lon="5.9181">
        <ele>2035</ele>
        <time>2013-10-07T15:46:02Z</time>
      </trkpt>
      <trkpt lat="45.12926" lon="5.91817">
        <ele>2038</ele>
        <time>2013-10-07T15:46:10Z</time>
      </trkpt>
      <trkpt lat="45.12926" lon="5.9182">
        <ele>2038</ele>
        <time>2013-10-07T15:46:12Z</time>
      </trkpt>
      <trkpt lat="45.12925" lon="5.91837">
        <ele>2043</ele>
        <time>2013-10-07T15:46:26Z</time>
      </trkpt>
      <trkpt lat="45.12925" lon="5.91839">
        <ele>2043</ele>
        <time>2013-10-07T15:46:48Z</time>
      </trkpt>
      <trkpt lat="45.12924" lon="5.91853">
        <ele>2042</ele>
        <time>2013-10-07T15:47:09Z</time>
      </trkpt>
      <trkpt lat="45.12923" lon="5.91857">
        <ele>2042</ele>
        <time>2013-10-07T15:47:12Z</time>
      </trkpt>
      <trkpt lat="45.12919" lon="5.91867">
        <ele>2042</ele>
        <time>2013-10-07T15:47:22Z</time>
      </trkpt>
      <trkpt lat="45.12916" lon="5.91879">
        <ele>2071</ele>
        <time>2013-10-07T15:47:30Z</time>
      </trkpt>
      <trkpt lat="45.12914" lon="5.91896">
        <ele>2071</ele>
        <time>2013-10-07T15:47:42Z</time>
      </trkpt>
      <trkpt lat="45.12908" lon="5.91907">
        <ele>2070</ele>
        <time>2013-10-07T15:47:52Z</time>
      </trkpt>
      <trkpt lat="45.12907" lon="5.91914">
        <ele>2069</ele>
        <time>2013-10-07T15:48:00Z</time>
      </trkpt>
      <trkpt lat="45.12907" lon="5.91922">
        <ele>2075</ele>
        <time>2013-10-07T15:48:10Z</time>
      </trkpt>
      <trkpt lat="45.12909" lon="5.91936">
        <ele>2080</ele>
        <time>2013-10-07T15:48:22Z</time>
      </trkpt>
      <trkpt lat="45.12904" lon="5.91937">
        <ele>2082</ele>
        <time>2013-10-07T15:48:35Z</time>
      </trkpt>
      <trkpt lat="45.12903" lon="5.91939">
        <ele>2083</ele>
        <time>2013-10-07T15:48:55Z</time>
      </trkpt>
      <trkpt lat="45.12902" lon="5.91948">
        <ele>2086</ele>
        <time>2013-10-07T15:49:14Z</time>
      </trkpt>
      <trkpt lat="45.129" lon="5.91957">
        <ele>2089</ele>
        <time>2013-10-07T15:49:25Z</time>
      </trkpt>
      <trkpt lat="45.12891" lon="5.91956">
        <ele>2090</ele>
        <time>2013-10-07T15:49:38Z</time>
      </trkpt>
      <trkpt lat="45.12887" lon="5.91961">
        <ele>2091</ele>
        <time>2013-10-07T15:49:48Z</time>
      </trkpt>
      <trkpt lat="45.12886" lon="5.91962">
        <ele>2091</ele>
        <time>2013-10-07T15:49:51Z</time>
      </trkpt>
      <trkpt lat="45.12891" lon="5.9197">
        <ele>2092</ele>
        <time>2013-10-07T15:50:03Z</time>
      </trkpt>
      <trkpt lat="45.12891" lon="5.91973">
        <ele>2093</ele>
        <time>2013-10-07T15:50:29Z</time>
      </trkpt>
      <trkpt lat="45.12884" lon="5.91974">
        <ele>2093</ele>
        <time>2013-10-07T15:50:35Z</time>
      </trkpt>
      <trkpt lat="45.12871" lon="5.91979">
        <ele>2095</ele>
        <time>2013-10-07T15:50:48Z</time>
      </trkpt>
      <trkpt lat="45.12864" lon="5.91992">
        <ele>2097</ele>
        <time>2013-10-07T15:51:01Z</time>
      </trkpt>
      <trkpt lat="45.12855" lon="5.91998">
        <ele>2098</ele>
        <time>2013-10-07T15:51:16Z</time>
      </trkpt>
      <trkpt lat="45.12846" lon="5.91994">
        <ele>2100</ele>
        <time>2013-10-07T15:51:35Z</time>
      </trkpt>
      <trkpt lat="45.12849" lon="5.91993">
        <ele>2099</ele>
        <time>2013-10-07T15:51:48Z</time>
      </trkpt>
      <trkpt lat="45.12859" lon="5.9201">
        <ele>2114</ele>
        <time>2013-10-07T15:52:06Z</time>
      </trkpt>
      <trkpt lat="45.12862" lon="5.92015">
        <ele>2115</ele>
        <time>2013-10-07T15:52:10Z</time>
      </trkpt>
      <trkpt lat="45.12864" lon="5.92025">
        <ele>2116</ele>
        <time>2013-10-07T15:52:16Z</time>
      </trkpt>
      <trkpt lat="45.12864" lon="5.92027">
        <ele>2117</ele>
        <time>2013-10-07T15:52:17Z</time>
      </trkpt>
      <trkpt lat="45.12856" lon="5.92034">
        <ele>2118</ele>
        <time>2013-10-07T15:52:28Z</time>
      </trkpt>
      <trkpt lat="45.12849" lon="5.92039">
        <ele>2120</ele>
        <time>2013-10-07T15:52:38Z</time>
      </trkpt>
      <trkpt lat="45.12851" lon="5.92045">
        <ele>2121</ele>
        <time>2013-10-07T15:52:47Z</time>
      </trkpt>
      <trkpt lat="45.12852" lon="5.92046">
        <ele>2121</ele>
        <time>2013-10-07T15:52:49Z</time>
      </trkpt>
      <trkpt lat="45.12859" lon="5.92048">
        <ele>2122</ele>
        <time>2013-10-07T15:53:00Z</time>
      </trkpt>
      <trkpt lat="45.12858" lon="5.92054">
        <ele>2123</ele>
        <time>2013-10-07T15:53:29Z</time>
      </trkpt>
      <trkpt lat="45.12856" lon="5.92057">
        <ele>2124</ele>
        <time>2013-10-07T15:53:33Z</time>
      </trkpt>
      <trkpt lat="45.1285" lon="5.92063">
        <ele>2126</ele>
        <time>2013-10-07T15:53:46Z</time>
      </trkpt>
      <trkpt lat="45.12856" lon="5.92067">
        <ele>2126</ele>
        <time>2013-10-07T15:53:54Z</time>
      </trkpt>
      <trkpt lat="45.12862" lon="5.9207">
        <ele>2126</ele>
        <time>2013-10-07T15:54:02Z</time>
      </trkpt>
      <trkpt lat="45.12863" lon="5.92079">
        <ele>2127</ele>
        <time>2013-10-07T15:54:13Z</time>
      </trkpt>
      <trkpt lat="45.12859" lon="5.92086">
        <ele>2151</ele>
        <time>2013-10-07T15:54:25Z</time>
      </trkpt>
      <trkpt lat="45.12854" lon="5.92093">
        <ele>2151</ele>
        <time>2013-10-07T15:54:37Z</time>
      </trkpt>
      <trkpt lat="45.12854" lon="5.921">
        <ele>2152</ele>
        <time>2013-10-07T15:54:46Z</time>
      </trkpt>
      <trkpt lat="45.1285" lon="5.92108">
        <ele>2154</ele>
        <time>2013-10-07T15:54:57Z</time>
      </trkpt>
      <trkpt lat="45.12845" lon="5.92112">
        <ele>2155</ele>
        <time>2013-10-07T15:55:08Z</time>
      </trkpt>
      <trkpt lat="45.12844" lon="5.92119">
        <ele>2158</ele>
        <time>2013-10-07T15:55:30Z</time>
      </trkpt>
      <trkpt lat="45.1284" lon="5.92136">
        <ele>2163</ele>
        <time>2013-10-07T15:55:53Z</time>
      </trkpt>
      <trkpt lat="45.12839" lon="5.92139">
        <ele>2164</ele>
        <time>2013-10-07T15:55:54Z</time>
      </trkpt>
      <trkpt lat="45.12828" lon="5.92154">
        <ele>2163</ele>
        <time>2013-10-07T15:56:06Z</time>
      </trkpt>
      <trkpt lat="45.1282" lon="5.92159">
        <ele>2162</ele>
        <time>2013-10-07T15:56:17Z</time>
      </trkpt>
      <trkpt lat="45.1282" lon="5.92165">
        <ele>2163</ele>
        <time>2013-10-07T15:56:26Z</time>
      </trkpt>
      <trkpt lat="45.12815" lon="5.92172">
        <ele>2174</ele>
        <time>2013-10-07T15:56:43Z</time>
      </trkpt>
      <trkpt lat="45.12818" lon="5.92175">
        <ele>2174</ele>
        <time>2013-10-07T15:57:08Z</time>
      </trkpt>
      <trkpt lat="45.12821" lon="5.92203">
        <ele>2176</ele>
        <time>2013-10-07T15:57:27Z</time>
      </trkpt>
      <trkpt lat="45.12823" lon="5.92215">
        <ele>2178</ele>
        <time>2013-10-07T15:57:37Z</time>
      </trkpt>
      <trkpt lat="45.12824" lon="5.92218">
        <ele>2178</ele>
        <time>2013-10-07T15:57:39Z</time>
      </trkpt>
      <trkpt lat="45.12826" lon="5.92236">
        <ele>2182</ele>
        <time>2013-10-07T15:57:56Z</time>
      </trkpt>
      <trkpt lat="45.12827" lon="5.92252">
        <ele>2188</ele>
        <time>2013-10-07T15:58:15Z</time>
      </trkpt>
      <trkpt lat="45.12826" lon="5.92272">
        <ele>2192</ele>
        <time>2013-10-07T15:58:32Z</time>
      </trkpt>
      <trkpt lat="45.12829" lon="5.92279">
        <ele>2194</ele>
        <time>2013-10-07T15:58:42Z</time>
      </trkpt>
      <trkpt lat="45.12831" lon="5.92283">
        <ele>2194</ele>
        <time>2013-10-07T15:58:51Z</time>
      </trkpt>
      <trkpt lat="45.12835" lon="5.92287">
        <ele>2210</ele>
        <time>2013-10-07T15:59:07Z</time>
      </trkpt>
      <trkpt lat="45.1284" lon="5.92294">
        <ele>2212</ele>
        <time>2013-10-07T15:59:18Z</time>
      </trkpt>
      <trkpt lat="45.12843" lon="5.923">
        <ele>2214</ele>
        <time>2013-10-07T15:59:28Z</time>
      </trkpt>
      <trkpt lat="45.12843" lon="5.92308">
        <ele>2214</ele>
        <time>2013-10-07T15:59:39Z</time>
      </trkpt>
      <trkpt lat="45.12842" lon="5.92315">
        <ele>2214</ele>
        <time>2013-10-07T15:59:51Z</time>
      </trkpt>
      <trkpt lat="45.12842" lon="5.9232">
        <ele>2213</ele>
        <time>2013-10-07T15:59:57Z</time>
      </trkpt>
      <trkpt lat="45.12845" lon="5.92329">
        <ele>2213</ele>
        <time>2013-10-07T16:00:09Z</time>
      </trkpt>
      <trkpt lat="45.12851" lon="5.92332">
        <ele>2216</ele>
        <time>2013-10-07T16:00:26Z</time>
      </trkpt>
      <trkpt lat="45.12854" lon="5.92334">
        <ele>2229</ele>
        <time>2013-10-07T16:00:30Z</time>
      </trkpt>
      <trkpt lat="45.12859" lon="5.92343">
        <ele>2234</ele>
        <time>2013-10-07T16:00:40Z</time>
      </trkpt>
      <trkpt lat="45.12864" lon="5.92356">
        <ele>2239</ele>
        <time>2013-10-07T16:00:53Z</time>
      </trkpt>
      <trkpt lat="45.12869" lon="5.92365">
        <ele>2242</ele>
        <time>2013-10-07T16:01:04Z</time>
      </trkpt>
      <trkpt lat="45.1287" lon="5.92366">
        <ele>2243</ele>
        <time>2013-10-07T16:01:25Z</time>
      </trkpt>
      <trkpt lat="45.1287" lon="5.92371">
        <ele>2243</ele>
        <time>2013-10-07T16:01:35Z</time>
      </trkpt>
      <trkpt lat="45.12874" lon="5.92383">
        <ele>2246</ele>
        <time>2013-10-07T16:01:45Z</time>
      </trkpt>
      <trkpt lat="45.12875" lon="5.92398">
        <ele>2248</ele>
        <time>2013-10-07T16:01:56Z</time>
      </trkpt>
      <trkpt lat="45.12877" lon="5.9241">
        <ele>2249</ele>
        <time>2013-10-07T16:02:07Z</time>
      </trkpt>
      <trkpt lat="45.12877" lon="5.92423">
        <ele>2261</ele>
        <time>2013-10-07T16:02:17Z</time>
      </trkpt>
      <trkpt lat="45.12873" lon="5.92433">
        <ele>2260</ele>
        <time>2013-10-07T16:02:31Z</time>
      </trkpt>
      <trkpt lat="45.12864" lon="5.9243">
        <ele>2257</ele>
        <time>2013-10-07T16:02:55Z</time>
      </trkpt>
      <trkpt lat="45.12863" lon="5.92438">
        <ele>2257</ele>
        <time>2013-10-07T16:03:24Z</time>
      </trkpt>
      <trkpt lat="45.12862" lon="5.92443">
        <ele>2258</ele>
        <time>2013-10-07T16:03:32Z</time>
      </trkpt>
      <trkpt lat="45.12863" lon="5.92447">
        <ele>2259</ele>
        <time>2013-10-07T16:03:38Z</time>
      </trkpt>
      <trkpt lat="45.12862" lon="5.92458">
        <ele>2260</ele>
        <time>2013-10-07T16:03:49Z</time>
      </trkpt>
      <trkpt lat="45.12863" lon="5.92465">
        <ele>2261</ele>
        <time>2013-10-07T16:03:58Z</time>
      </trkpt>
      <trkpt lat="45.12863" lon="5.92466">
        <ele>2261</ele>
        <time>2013-10-07T16:03:59Z</time>
      </trkpt>
      <trkpt lat="45.12866" lon="5.92477">
        <ele>2263</ele>
        <time>2013-10-07T16:04:11Z</time>
      </trkpt>
      <trkpt lat="45.12862" lon="5.92496">
        <ele>2263</ele>
        <time>2013-10-07T16:04:28Z</time>
      </trkpt>
      <trkpt lat="45.1285" lon="5.92502">
        <ele>2264</ele>
        <time>2013-10-07T16:04:48Z</time>
      </trkpt>
      <trkpt lat="45.12848" lon="5.92502">
        <ele>2263</ele>
        <time>2013-10-07T16:05:08Z</time>
      </trkpt>
      <trkpt lat="45.12843" lon="5.92516">
        <ele>2264</ele>
        <time>2013-10-07T16:05:26Z</time>
      </trkpt>
      <trkpt lat="45.12842" lon="5.92515">
        <ele>2263</ele>
        <time>2013-10-07T16:05:47Z</time>
      </trkpt>
      <trkpt lat="45.12839" lon="5.92515">
        <ele>2263</ele>
        <time>2013-10-07T16:06:14Z</time>
      </trkpt>
      <trkpt lat="45.12841" lon="5.92517">
        <ele>2263</ele>
        <time>2013-10-07T16:06:40Z</time>
      </trkpt>
      <trkpt lat="45.12843" lon="5.92518">
        <ele>2264</ele>
        <time>2013-10-07T16:06:43Z</time>
      </trkpt>
      <trkpt lat="45.12849" lon="5.92516">
        <ele>2265</ele>
        <time>2013-10-07T16:06:47Z</time>
      </trkpt>
      <trkpt lat="45.12861" lon="5.92534">
        <ele>2270</ele>
        <time>2013-10-07T16:07:02Z</time>
      </trkpt>
      <trkpt lat="45.12868" lon="5.92549">
        <ele>2272</ele>
        <time>2013-10-07T16:07:12Z</time>
      </trkpt>
      <trkpt lat="45.12876" lon="5.92555">
        <ele>2274</ele>
        <time>2013-10-07T16:07:19Z</time>
      </trkpt>
      <trkpt lat="45.12877" lon="5.92565">
        <ele>2274</ele>
        <time>2013-10-07T16:07:27Z</time>
      </trkpt>
      <trkpt lat="45.12879" lon="5.92579">
        <ele>2275</ele>
        <time>2013-10-07T16:07:39Z</time>
      </trkpt>
      <trkpt lat="45.12878" lon="5.92586">
        <ele>2279</ele>
        <time>2013-10-07T16:08:02Z</time>
      </trkpt>
      <trkpt lat="45.12873" lon="5.9259">
        <ele>2277</ele>
        <time>2013-10-07T16:08:22Z</time>
      </trkpt>
      <trkpt lat="45.12869" lon="5.92597">
        <ele>2276</ele>
        <time>2013-10-07T16:08:44Z</time>
      </trkpt>
      <trkpt lat="45.1287" lon="5.92604">
        <ele>2277</ele>
        <time>2013-10-07T16:09:02Z</time>
      </trkpt>
      <trkpt lat="45.1287" lon="5.92609">
        <ele>2278</ele>
        <time>2013-10-07T16:09:24Z</time>
      </trkpt>
      <trkpt lat="45.1287" lon="5.92613">
        <ele>2278</ele>
        <time>2013-10-07T16:09:49Z</time>
      </trkpt>
      <trkpt lat="45.12872" lon="5.92614">
        <ele>2278</ele>
        <time>2013-10-07T16:10:34Z</time>
      </trkpt>
      <trkpt lat="45.12867" lon="5.92619">
        <ele>2278</ele>
        <time>2013-10-07T16:11:16Z</time>
      </trkpt>
      <trkpt lat="45.12862" lon="5.92621">
        <ele>2277</ele>
        <time>2013-10-07T16:11:36Z</time>
      </trkpt>
      <trkpt lat="45.12862" lon="5.92616">
        <ele>2276</ele>
        <time>2013-10-07T16:11:54Z</time>
      </trkpt>
      <trkpt lat="45.12857" lon="5.92619">
        <ele>2275</ele>
        <time>2013-10-07T16:12:16Z</time>
      </trkpt>
      <trkpt lat="45.12855" lon="5.92617">
        <ele>2275</ele>
        <time>2013-10-07T16:12:35Z</time>
      </trkpt>
      <trkpt lat="45.1286" lon="5.92616">
        <ele>2276</ele>
        <time>2013-10-07T16:12:59Z</time>
      </trkpt>
      <trkpt lat="45.12861" lon="5.92611">
        <ele>2275</ele>
        <time>2013-10-07T16:13:23Z</time>
      </trkpt>
      <trkpt lat="45.12864" lon="5.92613">
        <ele>2276</ele>
        <time>2013-10-07T16:13:45Z</time>
      </trkpt>
      <trkpt lat="45.12863" lon="5.92612">
        <ele>2276</ele>
        <time>2013-10-07T16:14:15Z</time>
      </trkpt>
      <trkpt lat="45.12864" lon="5.92609">
        <ele>2276</ele>
        <time>2013-10-07T16:14:39Z</time>
      </trkpt>
      <trkpt lat="45.12865" lon="5.92607">
        <ele>2276</ele>
        <time>2013-10-07T16:14:58Z</time>
      </trkpt>
      <trkpt lat="45.12861" lon="5.92607">
        <ele>2275</ele>
        <time>2013-10-07T16:15:26Z</time>
      </trkpt>
      <trkpt lat="45.12864" lon="5.92603">
        <ele>2275</ele>
        <time>2013-10-07T16:15:45Z</time>
      </trkpt>
      <trkpt lat="45.12864" lon="5.92601">
        <ele>2275</ele>
        <time>2013-10-07T16:16:14Z</time>
      </trkpt>
      <trkpt lat="45.12867" lon="5.92605">
        <ele>2276</ele>
        <time>2013-10-07T16:16:38Z</time>
      </trkpt>
      <trkpt lat="45.12861" lon="5.92593">
        <ele>2273</ele>
        <time>2013-10-07T16:17:01Z</time>
      </trkpt>
      <trkpt lat="45.12856" lon="5.92593">
        <ele>2271</ele>
        <time>2013-10-07T16:17:24Z</time>
      </trkpt>
      <trkpt lat="45.12856" lon="5.92594">
        <ele>2271</ele>
        <time>2013-10-07T16:17:25Z</time>
      </trkpt>
      <trkpt lat="45.12852" lon="5.92599">
        <ele>2270</ele>
        <time>2013-10-07T16:17:44Z</time>
      </trkpt>
      <trkpt lat="45.12853" lon="5.92593">
        <ele>2269</ele>
        <time>2013-10-07T16:18:01Z</time>
      </trkpt>
      <trkpt lat="45.12857" lon="5.9259">
        <ele>2271</ele>
        <time>2013-10-07T16:18:24Z</time>
      </trkpt>
      <trkpt lat="45.12856" lon="5.92584">
        <ele>2270</ele>
        <time>2013-10-07T16:18:47Z</time>
      </trkpt>
      <trkpt lat="45.12846" lon="5.92575">
        <ele>2262</ele>
        <time>2013-10-07T16:18:57Z</time>
      </trkpt>
      <trkpt lat="45.12848" lon="5.92565">
        <ele>2265</ele>
        <time>2013-10-07T16:19:17Z</time>
      </trkpt>
      <trkpt lat="45.12847" lon="5.92564">
        <ele>2265</ele>
        <time>2013-10-07T16:19:28Z</time>
      </trkpt>
      <trkpt lat="45.12848" lon="5.92564">
        <ele>2265</ele>
        <time>2013-10-07T16:19:42Z</time>
      </trkpt>
      <trkpt lat="45.12848" lon="5.92563">
        <ele>2266</ele>
        <time>2013-10-07T16:20:03Z</time>
      </trkpt>
      <trkpt lat="45.12849" lon="5.92564">
        <ele>2266</ele>
        <time>2013-10-07T16:20:36Z</time>
      </trkpt>
      <trkpt lat="45.12849" lon="5.92567">
        <ele>2265</ele>
        <time>2013-10-07T16:21:11Z</time>
      </trkpt>
      <trkpt lat="45.12846" lon="5.92568">
        <ele>2264</ele>
        <time>2013-10-07T16:21:40Z</time>
      </trkpt>
      <trkpt lat="45.12848" lon="5.92569">
        <ele>2264</ele>
        <time>2013-10-07T16:22:09Z</time>
      </trkpt>
      <trkpt lat="45.12858" lon="5.92564">
        <ele>2268</ele>
        <time>2013-10-07T16:22:27Z</time>
      </trkpt>
      <trkpt lat="45.12855" lon="5.92547">
        <ele>2269</ele>
        <time>2013-10-07T16:22:46Z</time>
      </trkpt>
      <trkpt lat="45.12857" lon="5.92549">
        <ele>2269</ele>
        <time>2013-10-07T16:23:18Z</time>
      </trkpt>
      <trkpt lat="45.12851" lon="5.92548">
        <ele>2268</ele>
        <time>2013-10-07T16:23:46Z</time>
      </trkpt>
      <trkpt lat="45.12853" lon="5.92549">
        <ele>2268</ele>
        <time>2013-10-07T16:23:57Z</time>
      </trkpt>
      <trkpt lat="45.12866" lon="5.92573">
        <ele>2270</ele>
        <time>2013-10-07T16:24:20Z</time>
      </trkpt>
      <trkpt lat="45.12876" lon="5.9258">
        <ele>2274</ele>
        <time>2013-10-07T16:24:38Z</time>
      </trkpt>
      <trkpt lat="45.12877" lon="5.92589">
        <ele>2279</ele>
        <time>2013-10-07T16:25:01Z</time>
      </trkpt>
      <trkpt lat="45.12883" lon="5.926">
        <ele>2281</ele>
        <time>2013-10-07T16:25:12Z</time>
      </trkpt>
      <trkpt lat="45.12888" lon="5.92611">
        <ele>2283</ele>
        <time>2013-10-07T16:25:19Z</time>
      </trkpt>
      <trkpt lat="45.1289" lon="5.92613">
        <ele>2283</ele>
        <time>2013-10-07T16:25:22Z</time>
      </trkpt>
      <trkpt lat="45.12897" lon="5.92618">
        <ele>2285</ele>
        <time>2013-10-07T16:25:33Z</time>
      </trkpt>
      <trkpt lat="45.12902" lon="5.9263">
        <ele>2287</ele>
        <time>2013-10-07T16:25:45Z</time>
      </trkpt>
      <trkpt lat="45.12904" lon="5.92635">
        <ele>2288</ele>
        <time>2013-10-07T16:25:51Z</time>
      </trkpt>
      <trkpt lat="45.12905" lon="5.92649">
        <ele>2292</ele>
        <time>2013-10-07T16:26:05Z</time>
      </trkpt>
      <trkpt lat="45.12909" lon="5.92653">
        <ele>2295</ele>
        <time>2013-10-07T16:26:16Z</time>
      </trkpt>
      <trkpt lat="45.12916" lon="5.9265">
        <ele>2295</ele>
        <time>2013-10-07T16:26:28Z</time>
      </trkpt>
      <trkpt lat="45.12923" lon="5.92653">
        <ele>2312</ele>
        <time>2013-10-07T16:26:38Z</time>
      </trkpt>
      <trkpt lat="45.12923" lon="5.9266">
        <ele>2311</ele>
        <time>2013-10-07T16:26:57Z</time>
      </trkpt>
      <trkpt lat="45.12923" lon="5.92662">
        <ele>2310</ele>
        <time>2013-10-07T16:26:58Z</time>
      </trkpt>
      <trkpt lat="45.12927" lon="5.92675">
        <ele>2318</ele>
        <time>2013-10-07T16:27:08Z</time>
      </trkpt>
      <trkpt lat="45.12927" lon="5.92685">
        <ele>2322</ele>
        <time>2013-10-07T16:27:20Z</time>
      </trkpt>
      <trkpt lat="45.12925" lon="5.92686">
        <ele>2322</ele>
        <time>2013-10-07T16:27:40Z</time>
      </trkpt>
      <trkpt lat="45.12918" lon="5.92697">
        <ele>2325</ele>
        <time>2013-10-07T16:28:02Z</time>
      </trkpt>
      <trkpt lat="45.12917" lon="5.92712">
        <ele>2329</ele>
        <time>2013-10-07T16:28:15Z</time>
      </trkpt>
      <trkpt lat="45.12918" lon="5.92713">
        <ele>2329</ele>
        <time>2013-10-07T16:28:16Z</time>
      </trkpt>
      <trkpt lat="45.1292" lon="5.92735">
        <ele>2331</ele>
        <time>2013-10-07T16:28:29Z</time>
      </trkpt>
      <trkpt lat="45.1292" lon="5.92744">
        <ele>2331</ele>
        <time>2013-10-07T16:28:36Z</time>
      </trkpt>
      <trkpt lat="45.12911" lon="5.92739">
        <ele>2318</ele>
        <time>2013-10-07T16:28:56Z</time>
      </trkpt>
      <trkpt lat="45.12914" lon="5.92752">
        <ele>2329</ele>
        <time>2013-10-07T16:29:24Z</time>
      </trkpt>
      <trkpt lat="45.12918" lon="5.92768">
        <ele>2342</ele>
        <time>2013-10-07T16:29:34Z</time>
      </trkpt>
      <trkpt lat="45.12918" lon="5.92784">
        <ele>2347</ele>
        <time>2013-10-07T16:29:46Z</time>
      </trkpt>
      <trkpt lat="45.12916" lon="5.928">
        <ele>2329</ele>
        <time>2013-10-07T16:29:59Z</time>
      </trkpt>
      <trkpt lat="45.12919" lon="5.92818">
        <ele>2349</ele>
        <time>2013-10-07T16:30:11Z</time>
      </trkpt>
      <trkpt lat="45.12916" lon="5.92827">
        <ele>2340</ele>
        <time>2013-10-07T16:30:21Z</time>
      </trkpt>
      <trkpt lat="45.12917" lon="5.92835">
        <ele>2347</ele>
        <time>2013-10-07T16:30:30Z</time>
      </trkpt>
      <trkpt lat="45.12917" lon="5.92841">
        <ele>2353</ele>
        <time>2013-10-07T16:30:41Z</time>
      </trkpt>
      <trkpt lat="45.1291" lon="5.92839">
        <ele>2345</ele>
        <time>2013-10-07T16:30:56Z</time>
      </trkpt>
      <trkpt lat="45.1291" lon="5.92851">
        <ele>2345</ele>
        <time>2013-10-07T16:31:07Z</time>
      </trkpt>
      <trkpt lat="45.1291" lon="5.92865">
        <ele>2346</ele>
        <time>2013-10-07T16:31:23Z</time>
      </trkpt>
      <trkpt lat="45.12902" lon="5.92882">
        <ele>2349</ele>
        <time>2013-10-07T16:31:41Z</time>
      </trkpt>
      <trkpt lat="45.12892" lon="5.92896">
        <ele>2350</ele>
        <time>2013-10-07T16:31:55Z</time>
      </trkpt>
      <trkpt lat="45.12885" lon="5.92906">
        <ele>2350</ele>
        <time>2013-10-07T16:32:11Z</time>
      </trkpt>
      <trkpt lat="45.12882" lon="5.92914">
        <ele>2350</ele>
        <time>2013-10-07T16:32:19Z</time>
      </trkpt>
      <trkpt lat="45.12872" lon="5.92926">
        <ele>2365</ele>
        <time>2013-10-07T16:32:33Z</time>
      </trkpt>
      <trkpt lat="45.12867" lon="5.92936">
        <ele>2365</ele>
        <time>2013-10-07T16:32:44Z</time>
      </trkpt>
      <trkpt lat="45.12866" lon="5.92942">
        <ele>2367</ele>
        <time>2013-10-07T16:32:58Z</time>
      </trkpt>
      <trkpt lat="45.12862" lon="5.92949">
        <ele>2368</ele>
        <time>2013-10-07T16:33:11Z</time>
      </trkpt>
      <trkpt lat="45.12863" lon="5.92961">
        <ele>2371</ele>
        <time>2013-10-07T16:33:22Z</time>
      </trkpt>
      <trkpt lat="45.12865" lon="5.92967">
        <ele>2372</ele>
        <time>2013-10-07T16:33:40Z</time>
      </trkpt>
      <trkpt lat="45.12867" lon="5.92977">
        <ele>2374</ele>
        <time>2013-10-07T16:33:49Z</time>
      </trkpt>
      <trkpt lat="45.12865" lon="5.92983">
        <ele>2375</ele>
        <time>2013-10-07T16:34:02Z</time>
      </trkpt>
      <trkpt lat="45.12861" lon="5.9299">
        <ele>2377</ele>
        <time>2013-10-07T16:34:13Z</time>
      </trkpt>
      <trkpt lat="45.12856" lon="5.92998">
        <ele>2379</ele>
        <time>2013-10-07T16:34:24Z</time>
      </trkpt>
      <trkpt lat="45.12859" lon="5.93004">
        <ele>2393</ele>
        <time>2013-10-07T16:34:35Z</time>
      </trkpt>
      <trkpt lat="45.12859" lon="5.93008">
        <ele>2394</ele>
        <time>2013-10-07T16:34:56Z</time>
      </trkpt>
      <trkpt lat="45.12858" lon="5.93019">
        <ele>2395</ele>
        <time>2013-10-07T16:35:11Z</time>
      </trkpt>
      <trkpt lat="45.12856" lon="5.93025">
        <ele>2395</ele>
        <time>2013-10-07T16:35:17Z</time>
      </trkpt>
      <trkpt lat="45.12853" lon="5.9304">
        <ele>2398</ele>
        <time>2013-10-07T16:35:31Z</time>
      </trkpt>
      <trkpt lat="45.12853" lon="5.93048">
        <ele>2399</ele>
        <time>2013-10-07T16:35:41Z</time>
      </trkpt>
      <trkpt lat="45.12852" lon="5.93057">
        <ele>2400</ele>
        <time>2013-10-07T16:35:51Z</time>
      </trkpt>
      <trkpt lat="45.12851" lon="5.93066">
        <ele>2402</ele>
        <time>2013-10-07T16:36:07Z</time>
      </trkpt>
      <trkpt lat="45.12849" lon="5.93074">
        <ele>2403</ele>
        <time>2013-10-07T16:36:18Z</time>
      </trkpt>
      <trkpt lat="45.12845" lon="5.93087">
        <ele>2405</ele>
        <time>2013-10-07T16:36:31Z</time>
      </trkpt>
      <trkpt lat="45.1284" lon="5.931">
        <ele>2403</ele>
        <time>2013-10-07T16:36:53Z</time>
      </trkpt>
      <trkpt lat="45.12841" lon="5.93099">
        <ele>2403</ele>
        <time>2013-10-07T16:37:20Z</time>
      </trkpt>
      <trkpt lat="45.12838" lon="5.93094">
        <ele>2405</ele>
        <time>2013-10-07T16:37:40Z</time>
      </trkpt>
      <trkpt lat="45.12844" lon="5.93084">
        <ele>2405</ele>
        <time>2013-10-07T16:38:07Z</time>
      </trkpt>
      <trkpt lat="45.12845" lon="5.93084">
        <ele>2405</ele>
        <time>2013-10-07T16:38:34Z</time>
      </trkpt>
      <trkpt lat="45.12845" lon="5.93083">
        <ele>2405</ele>
        <time>2013-10-07T16:39:16Z</time>
      </trkpt>
      <trkpt lat="45.12846" lon="5.93084">
        <ele>2405</ele>
        <time>2013-10-07T16:39:48Z</time>
      </trkpt>
      <trkpt lat="45.12846" lon="5.93083">
        <ele>2405</ele>
        <time>2013-10-07T16:40:18Z</time>
      </trkpt>
      <trkpt lat="45.1285" lon="5.93081">
        <ele>2404</ele>
        <time>2013-10-07T16:40:42Z</time>
      </trkpt>
      <trkpt lat="45.1287" lon="5.93083">
        <ele>2402</ele>
        <time>2013-10-07T16:40:59Z</time>
      </trkpt>
      <trkpt lat="45.12884" lon="5.93093">
        <ele>2403</ele>
        <time>2013-10-07T16:41:14Z</time>
      </trkpt>
      <trkpt lat="45.12888" lon="5.93094">
        <ele>2404</ele>
        <time>2013-10-07T16:41:20Z</time>
      </trkpt>
      <trkpt lat="45.12895" lon="5.93096">
        <ele>2404</ele>
        <time>2013-10-07T16:41:27Z</time>
      </trkpt>
      <trkpt lat="45.12912" lon="5.931">
        <ele>2405</ele>
        <time>2013-10-07T16:41:44Z</time>
      </trkpt>
      <trkpt lat="45.12928" lon="5.93103">
        <ele>2412</ele>
        <time>2013-10-07T16:41:57Z</time>
      </trkpt>
      <trkpt lat="45.12937" lon="5.931">
        <ele>2413</ele>
        <time>2013-10-07T16:42:11Z</time>
      </trkpt>
      <trkpt lat="45.12948" lon="5.93097">
        <ele>2413</ele>
        <time>2013-10-07T16:42:23Z</time>
      </trkpt>
      <trkpt lat="45.12948" lon="5.93098">
        <ele>2414</ele>
        <time>2013-10-07T16:42:24Z</time>
      </trkpt>
      <trkpt lat="45.12951" lon="5.93095">
        <ele>2414</ele>
        <time>2013-10-07T16:42:31Z</time>
      </trkpt>
      <trkpt lat="45.12969" lon="5.93098">
        <ele>2415</ele>
        <time>2013-10-07T16:42:50Z</time>
      </trkpt>
      <trkpt lat="45.12985" lon="5.93107">
        <ele>2416</ele>
        <time>2013-10-07T16:43:06Z</time>
      </trkpt>
      <trkpt lat="45.12993" lon="5.93104">
        <ele>2417</ele>
        <time>2013-10-07T16:43:16Z</time>
      </trkpt>
      <trkpt lat="45.1301" lon="5.93099">
        <ele>2420</ele>
        <time>2013-10-07T16:43:32Z</time>
      </trkpt>
      <trkpt lat="45.13029" lon="5.93095">
        <ele>2420</ele>
        <time>2013-10-07T16:43:48Z</time>
      </trkpt>
      <trkpt lat="45.13034" lon="5.93094">
        <ele>2420</ele>
        <time>2013-10-07T16:44:04Z</time>
      </trkpt>
      <trkpt lat="45.13038" lon="5.93092">
        <ele>2420</ele>
        <time>2013-10-07T16:44:27Z</time>
      </trkpt>
      <trkpt lat="45.13043" lon="5.93092">
        <ele>2421</ele>
        <time>2013-10-07T16:44:35Z</time>
      </trkpt>
      <trkpt lat="45.13046" lon="5.93093">
        <ele>2421</ele>
        <time>2013-10-07T16:44:38Z</time>
      </trkpt>
      <trkpt lat="45.13054" lon="5.93091">
        <ele>2421</ele>
        <time>2013-10-07T16:44:55Z</time>
      </trkpt>
      <trkpt lat="45.1306" lon="5.93089">
        <ele>2422</ele>
        <time>2013-10-07T16:45:10Z</time>
      </trkpt>
      <trkpt lat="45.13061" lon="5.93089">
        <ele>2422</ele>
        <time>2013-10-07T16:45:37Z</time>
      </trkpt>
      <trkpt lat="45.13069" lon="5.9309">
        <ele>2423</ele>
        <time>2013-10-07T16:46:00Z</time>
      </trkpt>
      <trkpt lat="45.13072" lon="5.9309">
        <ele>2423</ele>
        <time>2013-10-07T16:46:23Z</time>
      </trkpt>
      <trkpt lat="45.13074" lon="5.93092">
        <ele>2423</ele>
        <time>2013-10-07T16:46:53Z</time>
      </trkpt>
      <trkpt lat="45.13078" lon="5.93093">
        <ele>2423</ele>
        <time>2013-10-07T16:47:20Z</time>
      </trkpt>
      <trkpt lat="45.13086" lon="5.93091">
        <ele>2421</ele>
        <time>2013-10-07T16:47:35Z</time>
      </trkpt>
      <trkpt lat="45.13091" lon="5.93092">
        <ele>2420</ele>
        <time>2013-10-07T16:47:43Z</time>
      </trkpt>
      <trkpt lat="45.13096" lon="5.93094">
        <ele>2418</ele>
        <time>2013-10-07T16:47:53Z</time>
      </trkpt>
      <trkpt lat="45.13097" lon="5.93082">
        <ele>2414</ele>
        <time>2013-10-07T16:48:10Z</time>
      </trkpt>
      <trkpt lat="45.13097" lon="5.93074">
        <ele>2413</ele>
        <time>2013-10-07T16:48:16Z</time>
      </trkpt>
      <trkpt lat="45.13092" lon="5.93052">
        <ele>2407</ele>
        <time>2013-10-07T16:48:32Z</time>
      </trkpt>
      <trkpt lat="45.13092" lon="5.93049">
        <ele>2407</ele>
        <time>2013-10-07T16:48:49Z</time>
      </trkpt>
      <trkpt lat="45.13092" lon="5.9305">
        <ele>2407</ele>
        <time>2013-10-07T16:49:18Z</time>
      </trkpt>
      <trkpt lat="45.1309" lon="5.93045">
        <ele>2406</ele>
        <time>2013-10-07T16:49:48Z</time>
      </trkpt>
      <trkpt lat="45.13088" lon="5.93032">
        <ele>2405</ele>
        <time>2013-10-07T16:50:03Z</time>
      </trkpt>
      <trkpt lat="45.13086" lon="5.93022">
        <ele>2406</ele>
        <time>2013-10-07T16:50:15Z</time>
      </trkpt>
      <trkpt lat="45.13087" lon="5.93022">
        <ele>2406</ele>
        <time>2013-10-07T16:50:46Z</time>
      </trkpt>
      <trkpt lat="45.13086" lon="5.93019">
        <ele>2406</ele>
        <time>2013-10-07T16:51:27Z</time>
      </trkpt>
      <trkpt lat="45.13079" lon="5.93003">
        <ele>2415</ele>
        <time>2013-10-07T16:51:39Z</time>
      </trkpt>
      <trkpt lat="45.13077" lon="5.92987">
        <ele>2406</ele>
        <time>2013-10-07T16:51:56Z</time>
      </trkpt>
      <trkpt lat="45.13076" lon="5.92969">
        <ele>2400</ele>
        <time>2013-10-07T16:52:15Z</time>
      </trkpt>
      <trkpt lat="45.13078" lon="5.92957">
        <ele>2396</ele>
        <time>2013-10-07T16:52:30Z</time>
      </trkpt>
      <trkpt lat="45.1308" lon="5.92957">
        <ele>2396</ele>
        <time>2013-10-07T16:52:58Z</time>
      </trkpt>
      <trkpt lat="45.13081" lon="5.92957">
        <ele>2396</ele>
        <time>2013-10-07T16:53:27Z</time>
      </trkpt>
      <trkpt lat="45.13081" lon="5.92958">
        <ele>2397</ele>
        <time>2013-10-07T16:53:53Z</time>
      </trkpt>
      <trkpt lat="45.1308" lon="5.92959">
        <ele>2397</ele>
        <time>2013-10-07T16:54:23Z</time>
      </trkpt>
      <trkpt lat="45.13081" lon="5.9296">
        <ele>2397</ele>
        <time>2013-10-07T16:54:56Z</time>
      </trkpt>
      <trkpt lat="45.13083" lon="5.92963">
        <ele>2398</ele>
        <time>2013-10-07T16:55:29Z</time>
      </trkpt>
      <trkpt lat="45.13082" lon="5.92962">
        <ele>2398</ele>
        <time>2013-10-07T16:56:06Z</time>
      </trkpt>
      <trkpt lat="45.13082" lon="5.92962">
        <ele>2398</ele>
        <time>2013-10-07T16:57:20Z</time>
      </trkpt>
      <trkpt lat="45.13082" lon="5.92962">
        <ele>2398</ele>
        <time>2013-10-07T16:59:01Z</time>
      </trkpt>
      <trkpt lat="45.13082" lon="5.92962">
        <ele>2398</ele>
        <time>2013-10-07T17:02:16Z</time>
      </trkpt>
      <trkpt lat="45.13082" lon="5.92962">
        <ele>2398</ele>
        <time>2013-10-07T17:04:04Z</time>
      </trkpt>
      <trkpt lat="45.13081" lon="5.92962">
        <ele>2398</ele>
        <time>2013-10-07T17:05:42Z</time>
      </trkpt>
      <trkpt lat="45.13081" lon="5.92961">
        <ele>2398</ele>
        <time>2013-10-07T17:07:24Z</time>
      </trkpt>
      <trkpt lat="45.13081" lon="5.92961">
        <ele>2398</ele>
        <time>2013-10-07T17:09:05Z</time>
      </trkpt>
      <trkpt lat="45.13081" lon="5.92961">
        <ele>2398</ele>
        <time>2013-10-07T17:10:33Z</time>
      </trkpt>
      <trkpt lat="45.13081" lon="5.92961">
        <ele>2398</ele>
        <time>2013-10-07T17:11:37Z</time>
      </trkpt>
      <trkpt lat="45.13081" lon="5.92961">
        <ele>2398</ele>
        <time>2013-10-07T17:12:44Z</time>
      </trkpt>
      <trkpt lat="45.13079" lon="5.92964">
        <ele>2399</ele>
        <time>2013-10-07T17:13:17Z</time>
      </trkpt>
      <trkpt lat="45.13078" lon="5.9297">
        <ele>2401</ele>
        <time>2013-10-07T17:13:20Z</time>
      </trkpt>
      <trkpt lat="45.13072" lon="5.92975">
        <ele>2402</ele>
        <time>2013-10-07T17:13:30Z</time>
      </trkpt>
      <trkpt lat="45.13071" lon="5.92976">
        <ele>2402</ele>
        <time>2013-10-07T17:13:31Z</time>
      </trkpt>
      <trkpt lat="45.13067" lon="5.92984">
        <ele>2404</ele>
        <time>2013-10-07T17:13:45Z</time>
      </trkpt>
      <trkpt lat="45.13062" lon="5.92984">
        <ele>2403</ele>
        <time>2013-10-07T17:13:50Z</time>
      </trkpt>
      <trkpt lat="45.1306" lon="5.92987">
        <ele>2404</ele>
        <time>2013-10-07T17:13:53Z</time>
      </trkpt>
      <trkpt lat="45.1306" lon="5.9299">
        <ele>2404</ele>
        <time>2013-10-07T17:13:55Z</time>
      </trkpt>
      <trkpt lat="45.13059" lon="5.93002">
        <ele>2416</ele>
        <time>2013-10-07T17:14:02Z</time>
      </trkpt>
      <trkpt lat="45.13054" lon="5.93009">
        <ele>2416</ele>
        <time>2013-10-07T17:14:12Z</time>
      </trkpt>
      <trkpt lat="45.13049" lon="5.93007">
        <ele>2416</ele>
        <time>2013-10-07T17:14:19Z</time>
      </trkpt>
      <trkpt lat="45.13043" lon="5.93003">
        <ele>2416</ele>
        <time>2013-10-07T17:14:26Z</time>
      </trkpt>
      <trkpt lat="45.13034" lon="5.92999">
        <ele>2404</ele>
        <time>2013-10-07T17:14:38Z</time>
      </trkpt>
      <trkpt lat="45.13031" lon="5.92999">
        <ele>2404</ele>
        <time>2013-10-07T17:14:42Z</time>
      </trkpt>
      <trkpt lat="45.13024" lon="5.93001">
        <ele>2414</ele>
        <time>2013-10-07T17:14:48Z</time>
      </trkpt>
      <trkpt lat="45.13015" lon="5.93002">
        <ele>2413</ele>
        <time>2013-10-07T17:14:58Z</time>
      </trkpt>
      <trkpt lat="45.13012" lon="5.92987">
        <ele>2405</ele>
        <time>2013-10-07T17:15:05Z</time>
      </trkpt>
      <trkpt lat="45.13011" lon="5.92979">
        <ele>2404</ele>
        <time>2013-10-07T17:15:09Z</time>
      </trkpt>
      <trkpt lat="45.13008" lon="5.92968">
        <ele>2402</ele>
        <time>2013-10-07T17:15:15Z</time>
      </trkpt>
      <trkpt lat="45.13003" lon="5.92953">
        <ele>2400</ele>
        <time>2013-10-07T17:15:23Z</time>
      </trkpt>
      <trkpt lat="45.13003" lon="5.92951">
        <ele>2400</ele>
        <time>2013-10-07T17:15:24Z</time>
      </trkpt>
      <trkpt lat="45.13" lon="5.92941">
        <ele>2399</ele>
        <time>2013-10-07T17:15:38Z</time>
      </trkpt>
      <trkpt lat="45.13" lon="5.92935">
        <ele>2395</ele>
        <time>2013-10-07T17:15:41Z</time>
      </trkpt>
      <trkpt lat="45.12993" lon="5.92926">
        <ele>2395</ele>
        <time>2013-10-07T17:15:49Z</time>
      </trkpt>
      <trkpt lat="45.12988" lon="5.92919">
        <ele>2395</ele>
        <time>2013-10-07T17:15:55Z</time>
      </trkpt>
      <trkpt lat="45.12982" lon="5.92915">
        <ele>2386</ele>
        <time>2013-10-07T17:16:01Z</time>
      </trkpt>
      <trkpt lat="45.12981" lon="5.92909">
        <ele>2385</ele>
        <time>2013-10-07T17:16:06Z</time>
      </trkpt>
      <trkpt lat="45.12981" lon="5.92904">
        <ele>2384</ele>
        <time>2013-10-07T17:16:09Z</time>
      </trkpt>
      <trkpt lat="45.12975" lon="5.92886">
        <ele>2378</ele>
        <time>2013-10-07T17:16:18Z</time>
      </trkpt>
      <trkpt lat="45.1297" lon="5.92875">
        <ele>2376</ele>
        <time>2013-10-07T17:16:26Z</time>
      </trkpt>
      <trkpt lat="45.12971" lon="5.92873">
        <ele>2375</ele>
        <time>2013-10-07T17:16:30Z</time>
      </trkpt>
      <trkpt lat="45.12965" lon="5.92866">
        <ele>2374</ele>
        <time>2013-10-07T17:16:51Z</time>
      </trkpt>
      <trkpt lat="45.12962" lon="5.92862">
        <ele>2373</ele>
        <time>2013-10-07T17:16:55Z</time>
      </trkpt>
      <trkpt lat="45.1296" lon="5.92862">
        <ele>2372</ele>
        <time>2013-10-07T17:16:57Z</time>
      </trkpt>
      <trkpt lat="45.12958" lon="5.92862">
        <ele>2372</ele>
        <time>2013-10-07T17:16:58Z</time>
      </trkpt>
      <trkpt lat="45.12951" lon="5.92859">
        <ele>2369</ele>
        <time>2013-10-07T17:17:05Z</time>
      </trkpt>
      <trkpt lat="45.12945" lon="5.92857">
        <ele>2367</ele>
        <time>2013-10-07T17:17:14Z</time>
      </trkpt>
      <trkpt lat="45.12944" lon="5.92855">
        <ele>2367</ele>
        <time>2013-10-07T17:17:16Z</time>
      </trkpt>
      <trkpt lat="45.12937" lon="5.9286">
        <ele>2366</ele>
        <time>2013-10-07T17:17:24Z</time>
      </trkpt>
      <trkpt lat="45.12937" lon="5.92865">
        <ele>2367</ele>
        <time>2013-10-07T17:17:27Z</time>
      </trkpt>
      <trkpt lat="45.12931" lon="5.9288">
        <ele>2369</ele>
        <time>2013-10-07T17:17:37Z</time>
      </trkpt>
      <trkpt lat="45.12929" lon="5.92888">
        <ele>2369</ele>
        <time>2013-10-07T17:17:42Z</time>
      </trkpt>
      <trkpt lat="45.12925" lon="5.92892">
        <ele>2369</ele>
        <time>2013-10-07T17:17:46Z</time>
      </trkpt>
      <trkpt lat="45.12918" lon="5.92892">
        <ele>2368</ele>
        <time>2013-10-07T17:17:56Z</time>
      </trkpt>
      <trkpt lat="45.12912" lon="5.92891">
        <ele>2352</ele>
        <time>2013-10-07T17:18:25Z</time>
      </trkpt>
      <trkpt lat="45.12909" lon="5.92892">
        <ele>2352</ele>
        <time>2013-10-07T17:18:28Z</time>
      </trkpt>
      <trkpt lat="45.12906" lon="5.92887">
        <ele>2350</ele>
        <time>2013-10-07T17:18:32Z</time>
      </trkpt>
      <trkpt lat="45.12903" lon="5.92863">
        <ele>2346</ele>
        <time>2013-10-07T17:18:44Z</time>
      </trkpt>
      <trkpt lat="45.12903" lon="5.92853">
        <ele>2345</ele>
        <time>2013-10-07T17:18:51Z</time>
      </trkpt>
      <trkpt lat="45.12903" lon="5.92842">
        <ele>2344</ele>
        <time>2013-10-07T17:18:57Z</time>
      </trkpt>
      <trkpt lat="45.12903" lon="5.92831">
        <ele>2336</ele>
        <time>2013-10-07T17:19:06Z</time>
      </trkpt>
      <trkpt lat="45.12902" lon="5.92827">
        <ele>2334</ele>
        <time>2013-10-07T17:19:09Z</time>
      </trkpt>
      <trkpt lat="45.12898" lon="5.92819">
        <ele>2331</ele>
        <time>2013-10-07T17:19:21Z</time>
      </trkpt>
      <trkpt lat="45.12899" lon="5.92814">
        <ele>2330</ele>
        <time>2013-10-07T17:19:25Z</time>
      </trkpt>
      <trkpt lat="45.129" lon="5.92808">
        <ele>2329</ele>
        <time>2013-10-07T17:19:29Z</time>
      </trkpt>
      <trkpt lat="45.12901" lon="5.92805">
        <ele>2328</ele>
        <time>2013-10-07T17:19:36Z</time>
      </trkpt>
      <trkpt lat="45.12901" lon="5.92792">
        <ele>2326</ele>
        <time>2013-10-07T17:19:43Z</time>
      </trkpt>
      <trkpt lat="45.12901" lon="5.9279">
        <ele>2326</ele>
        <time>2013-10-07T17:19:45Z</time>
      </trkpt>
      <trkpt lat="45.129" lon="5.92781">
        <ele>2325</ele>
        <time>2013-10-07T17:19:49Z</time>
      </trkpt>
      <trkpt lat="45.129" lon="5.92765">
        <ele>2324</ele>
        <time>2013-10-07T17:19:57Z</time>
      </trkpt>
      <trkpt lat="45.129" lon="5.92744">
        <ele>2314</ele>
        <time>2013-10-07T17:20:08Z</time>
      </trkpt>
      <trkpt lat="45.12899" lon="5.92733">
        <ele>2310</ele>
        <time>2013-10-07T17:20:12Z</time>
      </trkpt>
      <trkpt lat="45.129" lon="5.92719">
        <ele>2306</ele>
        <time>2013-10-07T17:20:19Z</time>
      </trkpt>
      <trkpt lat="45.12901" lon="5.92719">
        <ele>2306</ele>
        <time>2013-10-07T17:20:38Z</time>
      </trkpt>
      <trkpt lat="45.12902" lon="5.92719">
        <ele>2306</ele>
        <time>2013-10-07T17:21:04Z</time>
      </trkpt>
      <trkpt lat="45.12901" lon="5.92718">
        <ele>2306</ele>
        <time>2013-10-07T17:21:39Z</time>
      </trkpt>
      <trkpt lat="45.12903" lon="5.92705">
        <ele>2304</ele>
        <time>2013-10-07T17:22:02Z</time>
      </trkpt>
      <trkpt lat="45.12904" lon="5.9269">
        <ele>2303</ele>
        <time>2013-10-07T17:22:09Z</time>
      </trkpt>
      <trkpt lat="45.12906" lon="5.92674">
        <ele>2304</ele>
        <time>2013-10-07T17:22:16Z</time>
      </trkpt>
      <trkpt lat="45.12909" lon="5.92666">
        <ele>2300</ele>
        <time>2013-10-07T17:22:31Z</time>
      </trkpt>
      <trkpt lat="45.12909" lon="5.92657">
        <ele>2297</ele>
        <time>2013-10-07T17:22:37Z</time>
      </trkpt>
      <trkpt lat="45.12909" lon="5.92652">
        <ele>2295</ele>
        <time>2013-10-07T17:22:40Z</time>
      </trkpt>
      <trkpt lat="45.12909" lon="5.92648">
        <ele>2293</ele>
        <time>2013-10-07T17:22:43Z</time>
      </trkpt>
      <trkpt lat="45.12906" lon="5.92636">
        <ele>2289</ele>
        <time>2013-10-07T17:22:50Z</time>
      </trkpt>
      <trkpt lat="45.12906" lon="5.92632">
        <ele>2288</ele>
        <time>2013-10-07T17:22:53Z</time>
      </trkpt>
      <trkpt lat="45.12903" lon="5.92624">
        <ele>2286</ele>
        <time>2013-10-07T17:23:03Z</time>
      </trkpt>
      <trkpt lat="45.12902" lon="5.92622">
        <ele>2286</ele>
        <time>2013-10-07T17:23:04Z</time>
      </trkpt>
      <trkpt lat="45.12891" lon="5.92627">
        <ele>2284</ele>
        <time>2013-10-07T17:23:10Z</time>
      </trkpt>
      <trkpt lat="45.12887" lon="5.92629">
        <ele>2284</ele>
        <time>2013-10-07T17:23:13Z</time>
      </trkpt>
      <trkpt lat="45.12887" lon="5.92627">
        <ele>2283</ele>
        <time>2013-10-07T17:23:14Z</time>
      </trkpt>
      <trkpt lat="45.12889" lon="5.92612">
        <ele>2283</ele>
        <time>2013-10-07T17:23:21Z</time>
      </trkpt>
      <trkpt lat="45.12885" lon="5.92607">
        <ele>2282</ele>
        <time>2013-10-07T17:23:25Z</time>
      </trkpt>
      <trkpt lat="45.12884" lon="5.92607">
        <ele>2282</ele>
        <time>2013-10-07T17:23:29Z</time>
      </trkpt>
      <trkpt lat="45.12885" lon="5.92603">
        <ele>2282</ele>
        <time>2013-10-07T17:23:34Z</time>
      </trkpt>
      <trkpt lat="45.1288" lon="5.92599">
        <ele>2280</ele>
        <time>2013-10-07T17:23:39Z</time>
      </trkpt>
      <trkpt lat="45.12879" lon="5.92595">
        <ele>2280</ele>
        <time>2013-10-07T17:23:42Z</time>
      </trkpt>
      <trkpt lat="45.12877" lon="5.92585">
        <ele>2279</ele>
        <time>2013-10-07T17:23:50Z</time>
      </trkpt>
      <trkpt lat="45.12868" lon="5.92571">
        <ele>2271</ele>
        <time>2013-10-07T17:24:02Z</time>
      </trkpt>
      <trkpt lat="45.12865" lon="5.92565">
        <ele>2270</ele>
        <time>2013-10-07T17:24:07Z</time>
      </trkpt>
      <trkpt lat="45.12852" lon="5.92553">
        <ele>2268</ele>
        <time>2013-10-07T17:24:21Z</time>
      </trkpt>
      <trkpt lat="45.12848" lon="5.9253">
        <ele>2267</ele>
        <time>2013-10-07T17:24:34Z</time>
      </trkpt>
      <trkpt lat="45.12849" lon="5.92518">
        <ele>2266</ele>
        <time>2013-10-07T17:24:42Z</time>
      </trkpt>
      <trkpt lat="45.1285" lon="5.92511">
        <ele>2265</ele>
        <time>2013-10-07T17:24:46Z</time>
      </trkpt>
      <trkpt lat="45.12847" lon="5.92503">
        <ele>2262</ele>
        <time>2013-10-07T17:24:52Z</time>
      </trkpt>
      <trkpt lat="45.12843" lon="5.9249">
        <ele>2258</ele>
        <time>2013-10-07T17:24:59Z</time>
      </trkpt>
      <trkpt lat="45.12843" lon="5.92481">
        <ele>2258</ele>
        <time>2013-10-07T17:25:17Z</time>
      </trkpt>
      <trkpt lat="45.12844" lon="5.92483">
        <ele>2259</ele>
        <time>2013-10-07T17:25:48Z</time>
      </trkpt>
      <trkpt lat="45.12848" lon="5.92487">
        <ele>2259</ele>
        <time>2013-10-07T17:25:57Z</time>
      </trkpt>
      <trkpt lat="45.12853" lon="5.9249">
        <ele>2260</ele>
        <time>2013-10-07T17:26:15Z</time>
      </trkpt>
      <trkpt lat="45.12861" lon="5.92498">
        <ele>2263</ele>
        <time>2013-10-07T17:26:23Z</time>
      </trkpt>
      <trkpt lat="45.12864" lon="5.92495">
        <ele>2263</ele>
        <time>2013-10-07T17:26:36Z</time>
      </trkpt>
      <trkpt lat="45.12867" lon="5.92485">
        <ele>2264</ele>
        <time>2013-10-07T17:26:55Z</time>
      </trkpt>
      <trkpt lat="45.12868" lon="5.92485">
        <ele>2264</ele>
        <time>2013-10-07T17:27:09Z</time>
      </trkpt>
      <trkpt lat="45.12864" lon="5.92488">
        <ele>2263</ele>
        <time>2013-10-07T17:27:11Z</time>
      </trkpt>
      <trkpt lat="45.12854" lon="5.92492">
        <ele>2260</ele>
        <time>2013-10-07T17:27:20Z</time>
      </trkpt>
      <trkpt lat="45.12851" lon="5.92486">
        <ele>2260</ele>
        <time>2013-10-07T17:27:32Z</time>
      </trkpt>
      <trkpt lat="45.12851" lon="5.92486">
        <ele>2260</ele>
        <time>2013-10-07T17:27:52Z</time>
      </trkpt>
      <trkpt lat="45.12857" lon="5.92494">
        <ele>2261</ele>
        <time>2013-10-07T17:28:02Z</time>
      </trkpt>
      <trkpt lat="45.12863" lon="5.9248">
        <ele>2263</ele>
        <time>2013-10-07T17:28:13Z</time>
      </trkpt>
      <trkpt lat="45.12863" lon="5.92477">
        <ele>2262</ele>
        <time>2013-10-07T17:28:15Z</time>
      </trkpt>
      <trkpt lat="45.12857" lon="5.92463">
        <ele>2260</ele>
        <time>2013-10-07T17:28:27Z</time>
      </trkpt>
      <trkpt lat="45.12852" lon="5.92455">
        <ele>2258</ele>
        <time>2013-10-07T17:28:35Z</time>
      </trkpt>
      <trkpt lat="45.12852" lon="5.92439">
        <ele>2254</ele>
        <time>2013-10-07T17:28:52Z</time>
      </trkpt>
      <trkpt lat="45.12851" lon="5.9243">
        <ele>2251</ele>
        <time>2013-10-07T17:29:01Z</time>
      </trkpt>
      <trkpt lat="45.12852" lon="5.92423">
        <ele>2249</ele>
        <time>2013-10-07T17:29:09Z</time>
      </trkpt>
      <trkpt lat="45.12852" lon="5.9242">
        <ele>2249</ele>
        <time>2013-10-07T17:29:11Z</time>
      </trkpt>
      <trkpt lat="45.12854" lon="5.92406">
        <ele>2241</ele>
        <time>2013-10-07T17:29:19Z</time>
      </trkpt>
      <trkpt lat="45.12855" lon="5.924">
        <ele>2241</ele>
        <time>2013-10-07T17:29:22Z</time>
      </trkpt>
      <trkpt lat="45.12859" lon="5.92384">
        <ele>2242</ele>
        <time>2013-10-07T17:29:37Z</time>
      </trkpt>
      <trkpt lat="45.12858" lon="5.9238">
        <ele>2241</ele>
        <time>2013-10-07T17:29:43Z</time>
      </trkpt>
      <trkpt lat="45.12856" lon="5.92374">
        <ele>2240</ele>
        <time>2013-10-07T17:29:48Z</time>
      </trkpt>
      <trkpt lat="45.12855" lon="5.9237">
        <ele>2239</ele>
        <time>2013-10-07T17:29:50Z</time>
      </trkpt>
      <trkpt lat="45.12854" lon="5.92366">
        <ele>2238</ele>
        <time>2013-10-07T17:29:53Z</time>
      </trkpt>
      <trkpt lat="45.12852" lon="5.92353">
        <ele>2233</ele>
        <time>2013-10-07T17:30:01Z</time>
      </trkpt>
      <trkpt lat="45.12852" lon="5.92349">
        <ele>2232</ele>
        <time>2013-10-07T17:30:05Z</time>
      </trkpt>
      <trkpt lat="45.1285" lon="5.9234">
        <ele>2228</ele>
        <time>2013-10-07T17:30:21Z</time>
      </trkpt>
      <trkpt lat="45.1285" lon="5.92336">
        <ele>2227</ele>
        <time>2013-10-07T17:30:39Z</time>
      </trkpt>
      <trkpt lat="45.12852" lon="5.92333">
        <ele>2228</ele>
        <time>2013-10-07T17:31:04Z</time>
      </trkpt>
      <trkpt lat="45.1285" lon="5.92336">
        <ele>2227</ele>
        <time>2013-10-07T17:31:35Z</time>
      </trkpt>
      <trkpt lat="45.12849" lon="5.92337">
        <ele>2226</ele>
        <time>2013-10-07T17:32:08Z</time>
      </trkpt>
      <trkpt lat="45.12849" lon="5.92336">
        <ele>2226</ele>
        <time>2013-10-07T17:32:36Z</time>
      </trkpt>
      <trkpt lat="45.12845" lon="5.92327">
        <ele>2213</ele>
        <time>2013-10-07T17:32:49Z</time>
      </trkpt>
      <trkpt lat="45.12845" lon="5.92326">
        <ele>2214</ele>
        <time>2013-10-07T17:32:51Z</time>
      </trkpt>
      <trkpt lat="45.12845" lon="5.92321">
        <ele>2214</ele>
        <time>2013-10-07T17:32:56Z</time>
      </trkpt>
      <trkpt lat="45.12841" lon="5.92319">
        <ele>2213</ele>
        <time>2013-10-07T17:33:01Z</time>
      </trkpt>
      <trkpt lat="45.12838" lon="5.92312">
        <ele>2214</ele>
        <time>2013-10-07T17:33:08Z</time>
      </trkpt>
      <trkpt lat="45.12836" lon="5.92304">
        <ele>2213</ele>
        <time>2013-10-07T17:33:14Z</time>
      </trkpt>
      <trkpt lat="45.12835" lon="5.92301">
        <ele>2213</ele>
        <time>2013-10-07T17:33:16Z</time>
      </trkpt>
      <trkpt lat="45.12835" lon="5.9229">
        <ele>2211</ele>
        <time>2013-10-07T17:33:22Z</time>
      </trkpt>
      <trkpt lat="45.12835" lon="5.92288">
        <ele>2210</ele>
        <time>2013-10-07T17:33:23Z</time>
      </trkpt>
      <trkpt lat="45.12833" lon="5.92277">
        <ele>2193</ele>
        <time>2013-10-07T17:33:32Z</time>
      </trkpt>
      <trkpt lat="45.1283" lon="5.92272">
        <ele>2192</ele>
        <time>2013-10-07T17:33:40Z</time>
      </trkpt>
      <trkpt lat="45.12829" lon="5.92269">
        <ele>2192</ele>
        <time>2013-10-07T17:33:43Z</time>
      </trkpt>
      <trkpt lat="45.12829" lon="5.92268">
        <ele>2191</ele>
        <time>2013-10-07T17:33:44Z</time>
      </trkpt>
      <trkpt lat="45.12826" lon="5.92266">
        <ele>2191</ele>
        <time>2013-10-07T17:33:47Z</time>
      </trkpt>
      <trkpt lat="45.12823" lon="5.92263">
        <ele>2191</ele>
        <time>2013-10-07T17:33:54Z</time>
      </trkpt>
      <trkpt lat="45.12819" lon="5.92255">
        <ele>2190</ele>
        <time>2013-10-07T17:34:01Z</time>
      </trkpt>
      <trkpt lat="45.12816" lon="5.92249">
        <ele>2182</ele>
        <time>2013-10-07T17:34:08Z</time>
      </trkpt>
      <trkpt lat="45.12813" lon="5.92242">
        <ele>2181</ele>
        <time>2013-10-07T17:34:15Z</time>
      </trkpt>
      <trkpt lat="45.12812" lon="5.92236">
        <ele>2180</ele>
        <time>2013-10-07T17:34:19Z</time>
      </trkpt>
      <trkpt lat="45.12814" lon="5.92229">
        <ele>2179</ele>
        <time>2013-10-07T17:34:33Z</time>
      </trkpt>
      <trkpt lat="45.12821" lon="5.92209">
        <ele>2177</ele>
        <time>2013-10-07T17:34:52Z</time>
      </trkpt>
      <trkpt lat="45.12822" lon="5.92189">
        <ele>2175</ele>
        <time>2013-10-07T17:35:08Z</time>
      </trkpt>
      <trkpt lat="45.12828" lon="5.92172">
        <ele>2174</ele>
        <time>2013-10-07T17:35:24Z</time>
      </trkpt>
      <trkpt lat="45.12822" lon="5.92156">
        <ele>2162</ele>
        <time>2013-10-07T17:35:43Z</time>
      </trkpt>
      <trkpt lat="45.12821" lon="5.92147">
        <ele>2158</ele>
        <time>2013-10-07T17:35:51Z</time>
      </trkpt>
      <trkpt lat="45.12821" lon="5.92138">
        <ele>2155</ele>
        <time>2013-10-07T17:35:58Z</time>
      </trkpt>
      <trkpt lat="45.12831" lon="5.92132">
        <ele>2153</ele>
        <time>2013-10-07T17:36:07Z</time>
      </trkpt>
      <trkpt lat="45.12836" lon="5.92116">
        <ele>2156</ele>
        <time>2013-10-07T17:36:20Z</time>
      </trkpt>
      <trkpt lat="45.12838" lon="5.92108">
        <ele>2153</ele>
        <time>2013-10-07T17:36:36Z</time>
      </trkpt>
      <trkpt lat="45.12838" lon="5.92102">
        <ele>2151</ele>
        <time>2013-10-07T17:36:40Z</time>
      </trkpt>
      <trkpt lat="45.12841" lon="5.9209">
        <ele>2146</ele>
        <time>2013-10-07T17:36:48Z</time>
      </trkpt>
      <trkpt lat="45.12841" lon="5.92081">
        <ele>2134</ele>
        <time>2013-10-07T17:36:56Z</time>
      </trkpt>
      <trkpt lat="45.12845" lon="5.92074">
        <ele>2131</ele>
        <time>2013-10-07T17:37:01Z</time>
      </trkpt>
      <trkpt lat="45.12847" lon="5.9207">
        <ele>2129</ele>
        <time>2013-10-07T17:37:05Z</time>
      </trkpt>
      <trkpt lat="45.1285" lon="5.92061">
        <ele>2126</ele>
        <time>2013-10-07T17:37:13Z</time>
      </trkpt>
      <trkpt lat="45.12852" lon="5.92059">
        <ele>2125</ele>
        <time>2013-10-07T17:37:15Z</time>
      </trkpt>
      <trkpt lat="45.12854" lon="5.92052">
        <ele>2123</ele>
        <time>2013-10-07T17:37:21Z</time>
      </trkpt>
      <trkpt lat="45.12856" lon="5.92048">
        <ele>2122</ele>
        <time>2013-10-07T17:37:36Z</time>
      </trkpt>
      <trkpt lat="45.12856" lon="5.92052">
        <ele>2123</ele>
        <time>2013-10-07T17:38:06Z</time>
      </trkpt>
      <trkpt lat="45.12852" lon="5.92047">
        <ele>2122</ele>
        <time>2013-10-07T17:38:34Z</time>
      </trkpt>
      <trkpt lat="45.12849" lon="5.92047">
        <ele>2122</ele>
        <time>2013-10-07T17:38:37Z</time>
      </trkpt>
      <trkpt lat="45.12844" lon="5.92047">
        <ele>2122</ele>
        <time>2013-10-07T17:38:41Z</time>
      </trkpt>
      <trkpt lat="45.12848" lon="5.92038">
        <ele>2120</ele>
        <time>2013-10-07T17:38:47Z</time>
      </trkpt>
      <trkpt lat="45.1285" lon="5.92037">
        <ele>2119</ele>
        <time>2013-10-07T17:38:50Z</time>
      </trkpt>
      <trkpt lat="45.12845" lon="5.92028">
        <ele>2116</ele>
        <time>2013-10-07T17:38:58Z</time>
      </trkpt>
      <trkpt lat="45.12844" lon="5.92025">
        <ele>2116</ele>
        <time>2013-10-07T17:39:01Z</time>
      </trkpt>
      <trkpt lat="45.12843" lon="5.92023">
        <ele>2115</ele>
        <time>2013-10-07T17:39:03Z</time>
      </trkpt>
      <trkpt lat="45.12848" lon="5.92016">
        <ele>2114</ele>
        <time>2013-10-07T17:39:10Z</time>
      </trkpt>
      <trkpt lat="45.12852" lon="5.9201">
        <ele>2113</ele>
        <time>2013-10-07T17:39:16Z</time>
      </trkpt>
      <trkpt lat="45.12853" lon="5.92002">
        <ele>2112</ele>
        <time>2013-10-07T17:39:21Z</time>
      </trkpt>
      <trkpt lat="45.12851" lon="5.91996">
        <ele>2099</ele>
        <time>2013-10-07T17:39:25Z</time>
      </trkpt>
      <trkpt lat="45.1285" lon="5.91988">
        <ele>2099</ele>
        <time>2013-10-07T17:39:29Z</time>
      </trkpt>
      <trkpt lat="45.12853" lon="5.91973">
        <ele>2096</ele>
        <time>2013-10-07T17:39:38Z</time>
      </trkpt>
      <trkpt lat="45.12859" lon="5.91955">
        <ele>2094</ele>
        <time>2013-10-07T17:39:45Z</time>
      </trkpt>
      <trkpt lat="45.12871" lon="5.91945">
        <ele>2092</ele>
        <time>2013-10-07T17:39:53Z</time>
      </trkpt>
      <trkpt lat="45.12874" lon="5.91944">
        <ele>2091</ele>
        <time>2013-10-07T17:39:55Z</time>
      </trkpt>
      <trkpt lat="45.12877" lon="5.91944">
        <ele>2090</ele>
        <time>2013-10-07T17:39:57Z</time>
      </trkpt>
      <trkpt lat="45.12876" lon="5.91929">
        <ele>2089</ele>
        <time>2013-10-07T17:40:07Z</time>
      </trkpt>
      <trkpt lat="45.12882" lon="5.9192">
        <ele>2086</ele>
        <time>2013-10-07T17:40:13Z</time>
      </trkpt>
      <trkpt lat="45.12891" lon="5.91932">
        <ele>2085</ele>
        <time>2013-10-07T17:40:21Z</time>
      </trkpt>
      <trkpt lat="45.12894" lon="5.91936">
        <ele>2085</ele>
        <time>2013-10-07T17:40:25Z</time>
      </trkpt>
      <trkpt lat="45.12897" lon="5.91933">
        <ele>2083</ele>
        <time>2013-10-07T17:40:36Z</time>
      </trkpt>
      <trkpt lat="45.12901" lon="5.91933">
        <ele>2082</ele>
        <time>2013-10-07T17:40:53Z</time>
      </trkpt>
      <trkpt lat="45.12904" lon="5.91931">
        <ele>2079</ele>
        <time>2013-10-07T17:41:16Z</time>
      </trkpt>
      <trkpt lat="45.12909" lon="5.91932">
        <ele>2078</ele>
        <time>2013-10-07T17:41:40Z</time>
      </trkpt>
      <trkpt lat="45.12912" lon="5.91927">
        <ele>2075</ele>
        <time>2013-10-07T17:41:57Z</time>
      </trkpt>
      <trkpt lat="45.12913" lon="5.91927">
        <ele>2074</ele>
        <time>2013-10-07T17:41:58Z</time>
      </trkpt>
      <trkpt lat="45.12921" lon="5.91929">
        <ele>2062</ele>
        <time>2013-10-07T17:42:06Z</time>
      </trkpt>
      <trkpt lat="45.1293" lon="5.9193">
        <ele>2061</ele>
        <time>2013-10-07T17:42:18Z</time>
      </trkpt>
      <trkpt lat="45.12938" lon="5.91931">
        <ele>2060</ele>
        <time>2013-10-07T17:42:23Z</time>
      </trkpt>
      <trkpt lat="45.12946" lon="5.91929">
        <ele>2057</ele>
        <time>2013-10-07T17:42:29Z</time>
      </trkpt>
      <trkpt lat="45.12954" lon="5.91928">
        <ele>2055</ele>
        <time>2013-10-07T17:42:41Z</time>
      </trkpt>
      <trkpt lat="45.12957" lon="5.91924">
        <ele>2054</ele>
        <time>2013-10-07T17:42:45Z</time>
      </trkpt>
      <trkpt lat="45.1296" lon="5.91922">
        <ele>2052</ele>
        <time>2013-10-07T17:43:03Z</time>
      </trkpt>
      <trkpt lat="45.1296" lon="5.91914">
        <ele>2038</ele>
        <time>2013-10-07T17:43:26Z</time>
      </trkpt>
      <trkpt lat="45.12959" lon="5.9191">
        <ele>2038</ele>
        <time>2013-10-07T17:43:30Z</time>
      </trkpt>
      <trkpt lat="45.12957" lon="5.91898">
        <ele>2038</ele>
        <time>2013-10-07T17:43:44Z</time>
      </trkpt>
      <trkpt lat="45.12954" lon="5.91895">
        <ele>2039</ele>
        <time>2013-10-07T17:43:47Z</time>
      </trkpt>
      <trkpt lat="45.12943" lon="5.91886">
        <ele>2041</ele>
        <time>2013-10-07T17:43:56Z</time>
      </trkpt>
      <trkpt lat="45.12936" lon="5.91873">
        <ele>2040</ele>
        <time>2013-10-07T17:44:07Z</time>
      </trkpt>
      <trkpt lat="45.12931" lon="5.91858">
        <ele>2040</ele>
        <time>2013-10-07T17:44:27Z</time>
      </trkpt>
      <trkpt lat="45.12932" lon="5.91847">
        <ele>2041</ele>
        <time>2013-10-07T17:44:36Z</time>
      </trkpt>
      <trkpt lat="45.12933" lon="5.91834">
        <ele>2041</ele>
        <time>2013-10-07T17:44:46Z</time>
      </trkpt>
      <trkpt lat="45.12932" lon="5.91814">
        <ele>2036</ele>
        <time>2013-10-07T17:45:07Z</time>
      </trkpt>
      <trkpt lat="45.1293" lon="5.91801">
        <ele>2035</ele>
        <time>2013-10-07T17:45:16Z</time>
      </trkpt>
      <trkpt lat="45.12929" lon="5.91797">
        <ele>2035</ele>
        <time>2013-10-07T17:45:19Z</time>
      </trkpt>
      <trkpt lat="45.12935" lon="5.91783">
        <ele>2034</ele>
        <time>2013-10-07T17:45:26Z</time>
      </trkpt>
      <trkpt lat="45.12942" lon="5.91771">
        <ele>2033</ele>
        <time>2013-10-07T17:45:31Z</time>
      </trkpt>
      <trkpt lat="45.12943" lon="5.91769">
        <ele>2033</ele>
        <time>2013-10-07T17:45:32Z</time>
      </trkpt>
      <trkpt lat="45.12944" lon="5.91768">
        <ele>2033</ele>
        <time>2013-10-07T17:45:33Z</time>
      </trkpt>
      <trkpt lat="45.12951" lon="5.91757">
        <ele>2031</ele>
        <time>2013-10-07T17:45:38Z</time>
      </trkpt>
      <trkpt lat="45.12954" lon="5.91749">
        <ele>2032</ele>
        <time>2013-10-07T17:45:41Z</time>
      </trkpt>
      <trkpt lat="45.12962" lon="5.9174">
        <ele>2030</ele>
        <time>2013-10-07T17:45:46Z</time>
      </trkpt>
      <trkpt lat="45.1297" lon="5.91731">
        <ele>2028</ele>
        <time>2013-10-07T17:45:51Z</time>
      </trkpt>
      <trkpt lat="45.12976" lon="5.91722">
        <ele>2027</ele>
        <time>2013-10-07T17:45:57Z</time>
      </trkpt>
      <trkpt lat="45.12981" lon="5.9172">
        <ele>2026</ele>
        <time>2013-10-07T17:46:01Z</time>
      </trkpt>
      <trkpt lat="45.12981" lon="5.91717">
        <ele>2026</ele>
        <time>2013-10-07T17:46:03Z</time>
      </trkpt>
      <trkpt lat="45.12986" lon="5.91709">
        <ele>2026</ele>
        <time>2013-10-07T17:46:08Z</time>
      </trkpt>
      <trkpt lat="45.12997" lon="5.9169">
        <ele>2023</ele>
        <time>2013-10-07T17:46:21Z</time>
      </trkpt>
      <trkpt lat="45.13006" lon="5.91679">
        <ele>2010</ele>
        <time>2013-10-07T17:46:30Z</time>
      </trkpt>
      <trkpt lat="45.13026" lon="5.91662">
        <ele>2008</ele>
        <time>2013-10-07T17:46:46Z</time>
      </trkpt>
      <trkpt lat="45.13035" lon="5.9165">
        <ele>2007</ele>
        <time>2013-10-07T17:46:55Z</time>
      </trkpt>
      <trkpt lat="45.1304" lon="5.91639">
        <ele>2006</ele>
        <time>2013-10-07T17:47:02Z</time>
      </trkpt>
      <trkpt lat="45.1304" lon="5.91612">
        <ele>2006</ele>
        <time>2013-10-07T17:47:16Z</time>
      </trkpt>
      <trkpt lat="45.13039" lon="5.9159">
        <ele>2006</ele>
        <time>2013-10-07T17:47:28Z</time>
      </trkpt>
      <trkpt lat="45.13043" lon="5.91576">
        <ele>2005</ele>
        <time>2013-10-07T17:47:37Z</time>
      </trkpt>
      <trkpt lat="45.13049" lon="5.91555">
        <ele>2005</ele>
        <time>2013-10-07T17:47:50Z</time>
      </trkpt>
      <trkpt lat="45.13046" lon="5.91549">
        <ele>2005</ele>
        <time>2013-10-07T17:47:54Z</time>
      </trkpt>
      <trkpt lat="45.1304" lon="5.91528">
        <ele>2006</ele>
        <time>2013-10-07T17:48:06Z</time>
      </trkpt>
      <trkpt lat="45.1304" lon="5.91527">
        <ele>2006</ele>
        <time>2013-10-07T17:48:07Z</time>
      </trkpt>
      <trkpt lat="45.13039" lon="5.9152">
        <ele>2006</ele>
        <time>2013-10-07T17:48:11Z</time>
      </trkpt>
      <trkpt lat="45.13039" lon="5.91505">
        <ele>2007</ele>
        <time>2013-10-07T17:48:21Z</time>
      </trkpt>
      <trkpt lat="45.13038" lon="5.9148">
        <ele>2006</ele>
        <time>2013-10-07T17:48:35Z</time>
      </trkpt>
      <trkpt lat="45.13037" lon="5.91475">
        <ele>2006</ele>
        <time>2013-10-07T17:48:38Z</time>
      </trkpt>
      <trkpt lat="45.13035" lon="5.9147">
        <ele>2006</ele>
        <time>2013-10-07T17:48:42Z</time>
      </trkpt>
      <trkpt lat="45.13033" lon="5.9145">
        <ele>2006</ele>
        <time>2013-10-07T17:48:56Z</time>
      </trkpt>
      <trkpt lat="45.13036" lon="5.91429">
        <ele>2006</ele>
        <time>2013-10-07T17:49:08Z</time>
      </trkpt>
      <trkpt lat="45.13033" lon="5.91413">
        <ele>2006</ele>
        <time>2013-10-07T17:49:18Z</time>
      </trkpt>
      <trkpt lat="45.13035" lon="5.91403">
        <ele>2005</ele>
        <time>2013-10-07T17:49:24Z</time>
      </trkpt>
      <trkpt lat="45.13034" lon="5.91393">
        <ele>2005</ele>
        <time>2013-10-07T17:49:30Z</time>
      </trkpt>
      <trkpt lat="45.13034" lon="5.91388">
        <ele>2005</ele>
        <time>2013-10-07T17:49:33Z</time>
      </trkpt>
      <trkpt lat="45.13035" lon="5.91361">
        <ele>2005</ele>
        <time>2013-10-07T17:49:49Z</time>
      </trkpt>
      <trkpt lat="45.13035" lon="5.91337">
        <ele>2006</ele>
        <time>2013-10-07T17:50:02Z</time>
      </trkpt>
      <trkpt lat="45.13042" lon="5.91311">
        <ele>2007</ele>
        <time>2013-10-07T17:50:17Z</time>
      </trkpt>
      <trkpt lat="45.1305" lon="5.91279">
        <ele>2007</ele>
        <time>2013-10-07T17:50:34Z</time>
      </trkpt>
      <trkpt lat="45.13057" lon="5.91252">
        <ele>2005</ele>
        <time>2013-10-07T17:50:49Z</time>
      </trkpt>
      <trkpt lat="45.13068" lon="5.91234">
        <ele>2010</ele>
        <time>2013-10-07T17:51:04Z</time>
      </trkpt>
      <trkpt lat="45.13075" lon="5.91227">
        <ele>2011</ele>
        <time>2013-10-07T17:51:12Z</time>
      </trkpt>
      <trkpt lat="45.13079" lon="5.91218">
        <ele>2013</ele>
        <time>2013-10-07T17:51:20Z</time>
      </trkpt>
      <trkpt lat="45.13083" lon="5.91212">
        <ele>2005</ele>
        <time>2013-10-07T17:51:24Z</time>
      </trkpt>
      <trkpt lat="45.13089" lon="5.91208">
        <ele>2005</ele>
        <time>2013-10-07T17:51:28Z</time>
      </trkpt>
      <trkpt lat="45.13092" lon="5.91202">
        <ele>2006</ele>
        <time>2013-10-07T17:51:33Z</time>
      </trkpt>
      <trkpt lat="45.13097" lon="5.91199">
        <ele>2007</ele>
        <time>2013-10-07T17:51:37Z</time>
      </trkpt>
      <trkpt lat="45.13102" lon="5.91197">
        <ele>2007</ele>
        <time>2013-10-07T17:51:43Z</time>
      </trkpt>
      <trkpt lat="45.13106" lon="5.91193">
        <ele>2007</ele>
        <time>2013-10-07T17:51:49Z</time>
      </trkpt>
      <trkpt lat="45.13124" lon="5.91195">
        <ele>2005</ele>
        <time>2013-10-07T17:52:03Z</time>
      </trkpt>
      <trkpt lat="45.13134" lon="5.91193">
        <ele>2005</ele>
        <time>2013-10-07T17:52:11Z</time>
      </trkpt>
      <trkpt lat="45.13144" lon="5.91184">
        <ele>2005</ele>
        <time>2013-10-07T17:52:25Z</time>
      </trkpt>
      <trkpt lat="45.13146" lon="5.91174">
        <ele>2006</ele>
        <time>2013-10-07T17:52:31Z</time>
      </trkpt>
      <trkpt lat="45.13149" lon="5.91165">
        <ele>2015</ele>
        <time>2013-10-07T17:52:38Z</time>
      </trkpt>
      <trkpt lat="45.13155" lon="5.91163">
        <ele>2013</ele>
        <time>2013-10-07T17:52:43Z</time>
      </trkpt>
      <trkpt lat="45.13161" lon="5.91147">
        <ele>2016</ele>
        <time>2013-10-07T17:52:56Z</time>
      </trkpt>
      <trkpt lat="45.13171" lon="5.91126">
        <ele>2015</ele>
        <time>2013-10-07T17:53:14Z</time>
      </trkpt>
      <trkpt lat="45.13175" lon="5.91112">
        <ele>2016</ele>
        <time>2013-10-07T17:53:28Z</time>
      </trkpt>
      <trkpt lat="45.13178" lon="5.91105">
        <ele>2017</ele>
        <time>2013-10-07T17:53:34Z</time>
      </trkpt>
      <trkpt lat="45.13183" lon="5.91099">
        <ele>2018</ele>
        <time>2013-10-07T17:53:38Z</time>
      </trkpt>
      <trkpt lat="45.13188" lon="5.91075">
        <ele>2022</ele>
        <time>2013-10-07T17:53:54Z</time>
      </trkpt>
      <trkpt lat="45.13188" lon="5.91054">
        <ele>2023</ele>
        <time>2013-10-07T17:54:10Z</time>
      </trkpt>
      <trkpt lat="45.13183" lon="5.91042">
        <ele>2023</ele>
        <time>2013-10-07T17:54:24Z</time>
      </trkpt>
      <trkpt lat="45.13183" lon="5.91041">
        <ele>2023</ele>
        <time>2013-10-07T17:54:25Z</time>
      </trkpt>
      <trkpt lat="45.13181" lon="5.91025">
        <ele>2024</ele>
        <time>2013-10-07T17:54:42Z</time>
      </trkpt>
      <trkpt lat="45.13178" lon="5.91015">
        <ele>2025</ele>
        <time>2013-10-07T17:54:57Z</time>
      </trkpt>
      <trkpt lat="45.1318" lon="5.91003">
        <ele>2026</ele>
        <time>2013-10-07T17:55:15Z</time>
      </trkpt>
      <trkpt lat="45.13188" lon="5.90996">
        <ele>2024</ele>
        <time>2013-10-07T17:55:30Z</time>
      </trkpt>
      <trkpt lat="45.13192" lon="5.90999">
        <ele>2024</ele>
        <time>2013-10-07T17:55:35Z</time>
      </trkpt>
      <trkpt lat="45.13201" lon="5.90995">
        <ele>2023</ele>
        <time>2013-10-07T17:55:41Z</time>
      </trkpt>
      <trkpt lat="45.13201" lon="5.90996">
        <ele>2023</ele>
        <time>2013-10-07T17:55:42Z</time>
      </trkpt>
      <trkpt lat="45.1321" lon="5.91002">
        <ele>2023</ele>
        <time>2013-10-07T17:55:55Z</time>
      </trkpt>
      <trkpt lat="45.13216" lon="5.91002">
        <ele>2022</ele>
        <time>2013-10-07T17:56:06Z</time>
      </trkpt>
      <trkpt lat="45.13221" lon="5.91001">
        <ele>2022</ele>
        <time>2013-10-07T17:56:26Z</time>
      </trkpt>
      <trkpt lat="45.13221" lon="5.90995">
        <ele>2022</ele>
        <time>2013-10-07T17:56:50Z</time>
      </trkpt>
      <trkpt lat="45.13219" lon="5.90996">
        <ele>2022</ele>
        <time>2013-10-07T17:57:17Z</time>
      </trkpt>
      <trkpt lat="45.13219" lon="5.90995">
        <ele>2022</ele>
        <time>2013-10-07T17:57:47Z</time>
      </trkpt>
      <trkpt lat="45.13219" lon="5.90994">
        <ele>2022</ele>
        <time>2013-10-07T17:58:16Z</time>
      </trkpt>
      <trkpt lat="45.13219" lon="5.90993">
        <ele>2022</ele>
        <time>2013-10-07T17:58:46Z</time>
      </trkpt>
      <trkpt lat="45.13219" lon="5.90992">
        <ele>2022</ele>
        <time>2013-10-07T17:59:21Z</time>
      </trkpt>
      <trkpt lat="45.13218" lon="5.9099">
        <ele>2022</ele>
        <time>2013-10-07T17:59:49Z</time>
      </trkpt>
      <trkpt lat="45.13218" lon="5.90989">
        <ele>2022</ele>
        <time>2013-10-07T18:00:20Z</time>
      </trkpt>
      <trkpt lat="45.13217" lon="5.90991">
        <ele>2022</ele>
        <time>2013-10-07T18:00:47Z</time>
      </trkpt>
      <trkpt lat="45.13218" lon="5.90995">
        <ele>2022</ele>
        <time>2013-10-07T18:01:18Z</time>
      </trkpt>
      <trkpt lat="45.13223" lon="5.90994">
        <ele>2022</ele>
        <time>2013-10-07T18:01:41Z</time>
      </trkpt>
      <trkpt lat="45.13224" lon="5.90989">
        <ele>2021</ele>
        <time>2013-10-07T18:02:10Z</time>
      </trkpt>
      <trkpt lat="45.13222" lon="5.90994">
        <ele>2022</ele>
        <time>2013-10-07T18:02:29Z</time>
      </trkpt>
      <trkpt lat="45.13222" lon="5.90996">
        <ele>2022</ele>
        <time>2013-10-07T18:02:59Z</time>
      </trkpt>
      <trkpt lat="45.13219" lon="5.91001">
        <ele>2022</ele>
        <time>2013-10-07T18:03:28Z</time>
      </trkpt>
      <trkpt lat="45.13218" lon="5.91004">
        <ele>2022</ele>
        <time>2013-10-07T18:03:55Z</time>
      </trkpt>
      <trkpt lat="45.13217" lon="5.91">
        <ele>2022</ele>
        <time>2013-10-07T18:04:21Z</time>
      </trkpt>
      <trkpt lat="45.13214" lon="5.91003">
        <ele>2023</ele>
        <time>2013-10-07T18:04:31Z</time>
      </trkpt>
      <trkpt lat="45.13205" lon="5.91">
        <ele>2023</ele>
        <time>2013-10-07T18:04:40Z</time>
      </trkpt>
      <trkpt lat="45.13202" lon="5.90997">
        <ele>2023</ele>
        <time>2013-10-07T18:04:42Z</time>
      </trkpt>
      <trkpt lat="45.1319" lon="5.90996">
        <ele>2024</ele>
        <time>2013-10-07T18:04:54Z</time>
      </trkpt>
      <trkpt lat="45.13189" lon="5.90996">
        <ele>2024</ele>
        <time>2013-10-07T18:04:56Z</time>
      </trkpt>
      <trkpt lat="45.13183" lon="5.90999">
        <ele>2025</ele>
        <time>2013-10-07T18:05:05Z</time>
      </trkpt>
      <trkpt lat="45.13173" lon="5.90997">
        <ele>2027</ele>
        <time>2013-10-07T18:05:23Z</time>
      </trkpt>
      <trkpt lat="45.13173" lon="5.90994">
        <ele>2026</ele>
        <time>2013-10-07T18:05:25Z</time>
      </trkpt>
      <trkpt lat="45.13176" lon="5.90974">
        <ele>2024</ele>
        <time>2013-10-07T18:05:42Z</time>
      </trkpt>
      <trkpt lat="45.13179" lon="5.90961">
        <ele>2024</ele>
        <time>2013-10-07T18:05:56Z</time>
      </trkpt>
      <trkpt lat="45.13178" lon="5.90956">
        <ele>2024</ele>
        <time>2013-10-07T18:05:59Z</time>
      </trkpt>
      <trkpt lat="45.13181" lon="5.90943">
        <ele>2024</ele>
        <time>2013-10-07T18:06:07Z</time>
      </trkpt>
      <trkpt lat="45.13184" lon="5.90922">
        <ele>2024</ele>
        <time>2013-10-07T18:06:22Z</time>
      </trkpt>
      <trkpt lat="45.13184" lon="5.90913">
        <ele>2022</ele>
        <time>2013-10-07T18:06:32Z</time>
      </trkpt>
      <trkpt lat="45.13181" lon="5.90892">
        <ele>2021</ele>
        <time>2013-10-07T18:06:46Z</time>
      </trkpt>
      <trkpt lat="45.1318" lon="5.90886">
        <ele>2020</ele>
        <time>2013-10-07T18:06:50Z</time>
      </trkpt>
      <trkpt lat="45.13177" lon="5.9088">
        <ele>2020</ele>
        <time>2013-10-07T18:07:06Z</time>
      </trkpt>
      <trkpt lat="45.13178" lon="5.90868">
        <ele>2020</ele>
        <time>2013-10-07T18:07:26Z</time>
      </trkpt>
      <trkpt lat="45.13169" lon="5.90853">
        <ele>2022</ele>
        <time>2013-10-07T18:07:46Z</time>
      </trkpt>
      <trkpt lat="45.13164" lon="5.9084">
        <ele>2034</ele>
        <time>2013-10-07T18:08:04Z</time>
      </trkpt>
      <trkpt lat="45.13165" lon="5.90839">
        <ele>2033</ele>
        <time>2013-10-07T18:08:05Z</time>
      </trkpt>
      <trkpt lat="45.13165" lon="5.90826">
        <ele>2034</ele>
        <time>2013-10-07T18:08:23Z</time>
      </trkpt>
      <trkpt lat="45.13167" lon="5.90815">
        <ele>2019</ele>
        <time>2013-10-07T18:08:43Z</time>
      </trkpt>
      <trkpt lat="45.13163" lon="5.90806">
        <ele>2042</ele>
        <time>2013-10-07T18:09:01Z</time>
      </trkpt>
      <trkpt lat="45.13164" lon="5.90804">
        <ele>2043</ele>
        <time>2013-10-07T18:09:20Z</time>
      </trkpt>
      <trkpt lat="45.13162" lon="5.90796">
        <ele>2044</ele>
        <time>2013-10-07T18:09:40Z</time>
      </trkpt>
      <trkpt lat="45.13161" lon="5.90788">
        <ele>2044</ele>
        <time>2013-10-07T18:09:57Z</time>
      </trkpt>
      <trkpt lat="45.13162" lon="5.90779">
        <ele>2042</ele>
        <time>2013-10-07T18:10:14Z</time>
      </trkpt>
      <trkpt lat="45.13159" lon="5.90764">
        <ele>2037</ele>
        <time>2013-10-07T18:10:33Z</time>
      </trkpt>
      <trkpt lat="45.13159" lon="5.90762">
        <ele>2036</ele>
        <time>2013-10-07T18:10:36Z</time>
      </trkpt>
      <trkpt lat="45.13158" lon="5.90754">
        <ele>2033</ele>
        <time>2013-10-07T18:10:52Z</time>
      </trkpt>
      <trkpt lat="45.13156" lon="5.9074">
        <ele>2038</ele>
        <time>2013-10-07T18:11:08Z</time>
      </trkpt>
      <trkpt lat="45.13155" lon="5.90732">
        <ele>2042</ele>
        <time>2013-10-07T18:11:21Z</time>
      </trkpt>
      <trkpt lat="45.13156" lon="5.90721">
        <ele>2045</ele>
        <time>2013-10-07T18:11:34Z</time>
      </trkpt>
      <trkpt lat="45.13154" lon="5.90711">
        <ele>2047</ele>
        <time>2013-10-07T18:11:49Z</time>
      </trkpt>
      <trkpt lat="45.13151" lon="5.90692">
        <ele>2046</ele>
        <time>2013-10-07T18:12:05Z</time>
      </trkpt>
      <trkpt lat="45.13151" lon="5.90688">
        <ele>2045</ele>
        <time>2013-10-07T18:12:09Z</time>
      </trkpt>
      <trkpt lat="45.13151" lon="5.90673">
        <ele>2039</ele>
        <time>2013-10-07T18:12:23Z</time>
      </trkpt>
      <trkpt lat="45.13156" lon="5.9067">
        <ele>2034</ele>
        <time>2013-10-07T18:12:42Z</time>
      </trkpt>
      <trkpt lat="45.13155" lon="5.90662">
        <ele>2034</ele>
        <time>2013-10-07T18:12:56Z</time>
      </trkpt>
      <trkpt lat="45.13157" lon="5.90655">
        <ele>2036</ele>
        <time>2013-10-07T18:13:09Z</time>
      </trkpt>
      <trkpt lat="45.13156" lon="5.90648">
        <ele>2040</ele>
        <time>2013-10-07T18:13:24Z</time>
      </trkpt>
      <trkpt lat="45.1316" lon="5.90639">
        <ele>2041</ele>
        <time>2013-10-07T18:13:37Z</time>
      </trkpt>
      <trkpt lat="45.13161" lon="5.90636">
        <ele>2042</ele>
        <time>2013-10-07T18:13:55Z</time>
      </trkpt>
      <trkpt lat="45.13156" lon="5.90629">
        <ele>2044</ele>
        <time>2013-10-07T18:14:11Z</time>
      </trkpt>
      <trkpt lat="45.13153" lon="5.90611">
        <ele>2043</ele>
        <time>2013-10-07T18:14:31Z</time>
      </trkpt>
      <trkpt lat="45.13151" lon="5.90608">
        <ele>2043</ele>
        <time>2013-10-07T18:15:03Z</time>
      </trkpt>
      <trkpt lat="45.13146" lon="5.90602">
        <ele>2044</ele>
        <time>2013-10-07T18:15:26Z</time>
      </trkpt>
      <trkpt lat="45.13143" lon="5.90591">
        <ele>2043</ele>
        <time>2013-10-07T18:15:39Z</time>
      </trkpt>
      <trkpt lat="45.13141" lon="5.90585">
        <ele>2044</ele>
        <time>2013-10-07T18:15:53Z</time>
      </trkpt>
      <trkpt lat="45.13142" lon="5.90575">
        <ele>2037</ele>
        <time>2013-10-07T18:16:09Z</time>
      </trkpt>
      <trkpt lat="45.1314" lon="5.90566">
        <ele>2039</ele>
        <time>2013-10-07T18:16:19Z</time>
      </trkpt>
      <trkpt lat="45.1314" lon="5.90558">
        <ele>2039</ele>
        <time>2013-10-07T18:16:29Z</time>
      </trkpt>
      <trkpt lat="45.13138" lon="5.90553">
        <ele>2040</ele>
        <time>2013-10-07T18:16:40Z</time>
      </trkpt>
      <trkpt lat="45.13136" lon="5.90544">
        <ele>2039</ele>
        <time>2013-10-07T18:16:53Z</time>
      </trkpt>
      <trkpt lat="45.13132" lon="5.90539">
        <ele>2040</ele>
        <time>2013-10-07T18:16:59Z</time>
      </trkpt>
      <trkpt lat="45.13126" lon="5.90517">
        <ele>2041</ele>
        <time>2013-10-07T18:17:16Z</time>
      </trkpt>
      <trkpt lat="45.13119" lon="5.90495">
        <ele>2031</ele>
        <time>2013-10-07T18:17:29Z</time>
      </trkpt>
      <trkpt lat="45.13115" lon="5.90479">
        <ele>2032</ele>
        <time>2013-10-07T18:17:39Z</time>
      </trkpt>
      <trkpt lat="45.13116" lon="5.90467">
        <ele>2029</ele>
        <time>2013-10-07T18:17:47Z</time>
      </trkpt>
      <trkpt lat="45.13116" lon="5.90457">
        <ele>2029</ele>
        <time>2013-10-07T18:18:02Z</time>
      </trkpt>
      <trkpt lat="45.13117" lon="5.90439">
        <ele>2027</ele>
        <time>2013-10-07T18:18:22Z</time>
      </trkpt>
      <trkpt lat="45.13109" lon="5.9043">
        <ele>2030</ele>
        <time>2013-10-07T18:18:40Z</time>
      </trkpt>
      <trkpt lat="45.13106" lon="5.90411">
        <ele>2018</ele>
        <time>2013-10-07T18:18:51Z</time>
      </trkpt>
      <trkpt lat="45.13104" lon="5.90392">
        <ele>2012</ele>
        <time>2013-10-07T18:19:05Z</time>
      </trkpt>
      <trkpt lat="45.13102" lon="5.9038">
        <ele>2008</ele>
        <time>2013-10-07T18:19:16Z</time>
      </trkpt>
      <trkpt lat="45.13101" lon="5.90369">
        <ele>2006</ele>
        <time>2013-10-07T18:19:24Z</time>
      </trkpt>
      <trkpt lat="45.13096" lon="5.90357">
        <ele>2004</ele>
        <time>2013-10-07T18:19:33Z</time>
      </trkpt>
      <trkpt lat="45.13093" lon="5.90352">
        <ele>2003</ele>
        <time>2013-10-07T18:19:37Z</time>
      </trkpt>
      <trkpt lat="45.13089" lon="5.90333">
        <ele>2002</ele>
        <time>2013-10-07T18:19:53Z</time>
      </trkpt>
      <trkpt lat="45.13087" lon="5.90318">
        <ele>1987</ele>
        <time>2013-10-07T18:20:05Z</time>
      </trkpt>
      <trkpt lat="45.13081" lon="5.90309">
        <ele>1996</ele>
        <time>2013-10-07T18:20:15Z</time>
      </trkpt>
      <trkpt lat="45.13077" lon="5.90302">
        <ele>1994</ele>
        <time>2013-10-07T18:20:25Z</time>
      </trkpt>
      <trkpt lat="45.13071" lon="5.90285">
        <ele>1989</ele>
        <time>2013-10-07T18:20:43Z</time>
      </trkpt>
      <trkpt lat="45.13056" lon="5.90279">
        <ele>1990</ele>
        <time>2013-10-07T18:21:06Z</time>
      </trkpt>
      <trkpt lat="45.13045" lon="5.90264">
        <ele>1989</ele>
        <time>2013-10-07T18:21:25Z</time>
      </trkpt>
      <trkpt lat="45.13035" lon="5.90245">
        <ele>1968</ele>
        <time>2013-10-07T18:21:44Z</time>
      </trkpt>
      <trkpt lat="45.13026" lon="5.90229">
        <ele>1968</ele>
        <time>2013-10-07T18:22:02Z</time>
      </trkpt>
      <trkpt lat="45.13022" lon="5.90218">
        <ele>1967</ele>
        <time>2013-10-07T18:22:22Z</time>
      </trkpt>
      <trkpt lat="45.13021" lon="5.90216">
        <ele>1967</ele>
        <time>2013-10-07T18:22:25Z</time>
      </trkpt>
      <trkpt lat="45.13014" lon="5.90209">
        <ele>1967</ele>
        <time>2013-10-07T18:22:31Z</time>
      </trkpt>
      <trkpt lat="45.13013" lon="5.9021">
        <ele>1967</ele>
        <time>2013-10-07T18:22:46Z</time>
      </trkpt>
      <trkpt lat="45.13008" lon="5.90203">
        <ele>1966</ele>
        <time>2013-10-07T18:23:08Z</time>
      </trkpt>
      <trkpt lat="45.13002" lon="5.90191">
        <ele>1966</ele>
        <time>2013-10-07T18:23:28Z</time>
      </trkpt>
      <trkpt lat="45.12998" lon="5.90175">
        <ele>1982</ele>
        <time>2013-10-07T18:23:45Z</time>
      </trkpt>
      <trkpt lat="45.12999" lon="5.9017">
        <ele>1974</ele>
        <time>2013-10-07T18:24:01Z</time>
      </trkpt>
      <trkpt lat="45.12999" lon="5.90162">
        <ele>1975</ele>
        <time>2013-10-07T18:24:21Z</time>
      </trkpt>
      <trkpt lat="45.13003" lon="5.90153">
        <ele>1958</ele>
        <time>2013-10-07T18:24:43Z</time>
      </trkpt>
      <trkpt lat="45.13005" lon="5.90151">
        <ele>1957</ele>
        <time>2013-10-07T18:24:45Z</time>
      </trkpt>
      <trkpt lat="45.13006" lon="5.90147">
        <ele>1955</ele>
        <time>2013-10-07T18:24:48Z</time>
      </trkpt>
      <trkpt lat="45.13005" lon="5.90144">
        <ele>1955</ele>
        <time>2013-10-07T18:24:50Z</time>
      </trkpt>
      <trkpt lat="45.13001" lon="5.90129">
        <ele>1952</ele>
        <time>2013-10-07T18:25:04Z</time>
      </trkpt>
      <trkpt lat="45.13001" lon="5.90126">
        <ele>1952</ele>
        <time>2013-10-07T18:25:06Z</time>
      </trkpt>
      <trkpt lat="45.13002" lon="5.90118">
        <ele>1951</ele>
        <time>2013-10-07T18:25:11Z</time>
      </trkpt>
      <trkpt lat="45.13003" lon="5.90107">
        <ele>1952</ele>
        <time>2013-10-07T18:25:17Z</time>
      </trkpt>
      <trkpt lat="45.13005" lon="5.90083">
        <ele>1955</ele>
        <time>2013-10-07T18:25:34Z</time>
      </trkpt>
      <trkpt lat="45.13007" lon="5.90067">
        <ele>1949</ele>
        <time>2013-10-07T18:25:50Z</time>
      </trkpt>
      <trkpt lat="45.13013" lon="5.90055">
        <ele>1945</ele>
        <time>2013-10-07T18:25:59Z</time>
      </trkpt>
      <trkpt lat="45.13013" lon="5.90052">
        <ele>1944</ele>
        <time>2013-10-07T18:26:01Z</time>
      </trkpt>
      <trkpt lat="45.1301" lon="5.90023">
        <ele>1945</ele>
        <time>2013-10-07T18:26:17Z</time>
      </trkpt>
      <trkpt lat="45.13007" lon="5.90002">
        <ele>1950</ele>
        <time>2013-10-07T18:26:30Z</time>
      </trkpt>
      <trkpt lat="45.13006" lon="5.89991">
        <ele>1946</ele>
        <time>2013-10-07T18:26:36Z</time>
      </trkpt>
      <trkpt lat="45.13003" lon="5.8997">
        <ele>1941</ele>
        <time>2013-10-07T18:26:53Z</time>
      </trkpt>
      <trkpt lat="45.13003" lon="5.89965">
        <ele>1940</ele>
        <time>2013-10-07T18:26:57Z</time>
      </trkpt>
      <trkpt lat="45.12999" lon="5.89935">
        <ele>1960</ele>
        <time>2013-10-07T18:27:15Z</time>
      </trkpt>
      <trkpt lat="45.1299" lon="5.89913">
        <ele>1951</ele>
        <time>2013-10-07T18:27:30Z</time>
      </trkpt>
      <trkpt lat="45.12978" lon="5.89892">
        <ele>1954</ele>
        <time>2013-10-07T18:27:45Z</time>
      </trkpt>
      <trkpt lat="45.12973" lon="5.89884">
        <ele>1954</ele>
        <time>2013-10-07T18:27:59Z</time>
      </trkpt>
      <trkpt lat="45.12959" lon="5.89862">
        <ele>1955</ele>
        <time>2013-10-07T18:28:16Z</time>
      </trkpt>
      <trkpt lat="45.12949" lon="5.8984">
        <ele>1955</ele>
        <time>2013-10-07T18:28:32Z</time>
      </trkpt>
      <trkpt lat="45.1294" lon="5.89812">
        <ele>1946</ele>
        <time>2013-10-07T18:28:50Z</time>
      </trkpt>
      <trkpt lat="45.1294" lon="5.89809">
        <ele>1945</ele>
        <time>2013-10-07T18:28:52Z</time>
      </trkpt>
      <trkpt lat="45.12937" lon="5.89798">
        <ele>1944</ele>
        <time>2013-10-07T18:28:59Z</time>
      </trkpt>
      <trkpt lat="45.12927" lon="5.8978">
        <ele>1945</ele>
        <time>2013-10-07T18:29:12Z</time>
      </trkpt>
      <trkpt lat="45.12927" lon="5.89779">
        <ele>1945</ele>
        <time>2013-10-07T18:29:13Z</time>
      </trkpt>
      <trkpt lat="45.12924" lon="5.89774">
        <ele>1945</ele>
        <time>2013-10-07T18:29:17Z</time>
      </trkpt>
      <trkpt lat="45.12909" lon="5.89752">
        <ele>1958</ele>
        <time>2013-10-07T18:29:35Z</time>
      </trkpt>
      <trkpt lat="45.129" lon="5.89732">
        <ele>1955</ele>
        <time>2013-10-07T18:29:52Z</time>
      </trkpt>
      <trkpt lat="45.12886" lon="5.89705">
        <ele>1955</ele>
        <time>2013-10-07T18:30:09Z</time>
      </trkpt>
      <trkpt lat="45.12875" lon="5.89684">
        <ele>1954</ele>
        <time>2013-10-07T18:30:25Z</time>
      </trkpt>
      <trkpt lat="45.12868" lon="5.89673">
        <ele>1954</ele>
        <time>2013-10-07T18:30:40Z</time>
      </trkpt>
      <trkpt lat="45.12858" lon="5.89665">
        <ele>1945</ele>
        <time>2013-10-07T18:30:52Z</time>
      </trkpt>
      <trkpt lat="45.12853" lon="5.8965">
        <ele>1944</ele>
        <time>2013-10-07T18:31:03Z</time>
      </trkpt>
      <trkpt lat="45.1285" lon="5.89635">
        <ele>1942</ele>
        <time>2013-10-07T18:31:12Z</time>
      </trkpt>
      <trkpt lat="45.12845" lon="5.89617">
        <ele>1940</ele>
        <time>2013-10-07T18:31:23Z</time>
      </trkpt>
      <trkpt lat="45.12837" lon="5.89599">
        <ele>1938</ele>
        <time>2013-10-07T18:31:34Z</time>
      </trkpt>
      <trkpt lat="45.12834" lon="5.89591">
        <ele>1936</ele>
        <time>2013-10-07T18:31:38Z</time>
      </trkpt>
      <trkpt lat="45.12819" lon="5.8957">
        <ele>1939</ele>
        <time>2013-10-07T18:31:54Z</time>
      </trkpt>
      <trkpt lat="45.12814" lon="5.89565">
        <ele>1940</ele>
        <time>2013-10-07T18:32:00Z</time>
      </trkpt>
      <trkpt lat="45.12811" lon="5.89546">
        <ele>1939</ele>
        <time>2013-10-07T18:32:13Z</time>
      </trkpt>
      <trkpt lat="45.12805" lon="5.89524">
        <ele>1938</ele>
        <time>2013-10-07T18:32:25Z</time>
      </trkpt>
      <trkpt lat="45.12801" lon="5.89512">
        <ele>1937</ele>
        <time>2013-10-07T18:32:32Z</time>
      </trkpt>
      <trkpt lat="45.12799" lon="5.89483">
        <ele>1928</ele>
        <time>2013-10-07T18:32:49Z</time>
      </trkpt>
      <trkpt lat="45.12793" lon="5.89466">
        <ele>1927</ele>
        <time>2013-10-07T18:33:00Z</time>
      </trkpt>
      <trkpt lat="45.12782" lon="5.89443">
        <ele>1927</ele>
        <time>2013-10-07T18:33:18Z</time>
      </trkpt>
      <trkpt lat="45.12777" lon="5.89432">
        <ele>1927</ele>
        <time>2013-10-07T18:33:27Z</time>
      </trkpt>
      <trkpt lat="45.12778" lon="5.89428">
        <ele>1927</ele>
        <time>2013-10-07T18:33:30Z</time>
      </trkpt>
      <trkpt lat="45.12779" lon="5.89425">
        <ele>1927</ele>
        <time>2013-10-07T18:33:32Z</time>
      </trkpt>
      <trkpt lat="45.12781" lon="5.89416">
        <ele>1919</ele>
        <time>2013-10-07T18:33:41Z</time>
      </trkpt>
      <trkpt lat="45.1278" lon="5.89405">
        <ele>1919</ele>
        <time>2013-10-07T18:33:50Z</time>
      </trkpt>
      <trkpt lat="45.1277" lon="5.89387">
        <ele>1919</ele>
        <time>2013-10-07T18:34:03Z</time>
      </trkpt>
      <trkpt lat="45.12766" lon="5.89369">
        <ele>1917</ele>
        <time>2013-10-07T18:34:15Z</time>
      </trkpt>
      <trkpt lat="45.12756" lon="5.89351">
        <ele>1917</ele>
        <time>2013-10-07T18:34:29Z</time>
      </trkpt>
      <trkpt lat="45.12756" lon="5.89349">
        <ele>1917</ele>
        <time>2013-10-07T18:34:30Z</time>
      </trkpt>
      <trkpt lat="45.12744" lon="5.89334">
        <ele>1921</ele>
        <time>2013-10-07T18:34:44Z</time>
      </trkpt>
      <trkpt lat="45.1274" lon="5.89332">
        <ele>1917</ele>
        <time>2013-10-07T18:34:48Z</time>
      </trkpt>
      <trkpt lat="45.12736" lon="5.89328">
        <ele>1916</ele>
        <time>2013-10-07T18:34:53Z</time>
      </trkpt>
      <trkpt lat="45.12727" lon="5.89312">
        <ele>1915</ele>
        <time>2013-10-07T18:35:08Z</time>
      </trkpt>
      <trkpt lat="45.12726" lon="5.893">
        <ele>1914</ele>
        <time>2013-10-07T18:35:18Z</time>
      </trkpt>
      <trkpt lat="45.12731" lon="5.89294">
        <ele>1912</ele>
        <time>2013-10-07T18:35:25Z</time>
      </trkpt>
      <trkpt lat="45.1273" lon="5.8929">
        <ele>1912</ele>
        <time>2013-10-07T18:35:28Z</time>
      </trkpt>
      <trkpt lat="45.12733" lon="5.89285">
        <ele>1911</ele>
        <time>2013-10-07T18:35:35Z</time>
      </trkpt>
      <trkpt lat="45.12733" lon="5.89282">
        <ele>1910</ele>
        <time>2013-10-07T18:35:37Z</time>
      </trkpt>
      <trkpt lat="45.12737" lon="5.89271">
        <ele>1908</ele>
        <time>2013-10-07T18:35:51Z</time>
      </trkpt>
      <trkpt lat="45.12737" lon="5.89266">
        <ele>1906</ele>
        <time>2013-10-07T18:35:55Z</time>
      </trkpt>
      <trkpt lat="45.12739" lon="5.89257">
        <ele>1904</ele>
        <time>2013-10-07T18:36:03Z</time>
      </trkpt>
      <trkpt lat="45.12736" lon="5.8925">
        <ele>1896</ele>
        <time>2013-10-07T18:36:08Z</time>
      </trkpt>
      <trkpt lat="45.12737" lon="5.89243">
        <ele>1896</ele>
        <time>2013-10-07T18:36:12Z</time>
      </trkpt>
      <trkpt lat="45.12734" lon="5.89227">
        <ele>1894</ele>
        <time>2013-10-07T18:36:26Z</time>
      </trkpt>
      <trkpt lat="45.12732" lon="5.89213">
        <ele>1892</ele>
        <time>2013-10-07T18:36:40Z</time>
      </trkpt>
      <trkpt lat="45.12733" lon="5.89204">
        <ele>1891</ele>
        <time>2013-10-07T18:36:50Z</time>
      </trkpt>
      <trkpt lat="45.12734" lon="5.89194">
        <ele>1888</ele>
        <time>2013-10-07T18:37:05Z</time>
      </trkpt>
      <trkpt lat="45.12731" lon="5.89184">
        <ele>1887</ele>
        <time>2013-10-07T18:37:18Z</time>
      </trkpt>
      <trkpt lat="45.1273" lon="5.89177">
        <ele>1885</ele>
        <time>2013-10-07T18:37:36Z</time>
      </trkpt>
      <trkpt lat="45.12728" lon="5.89163">
        <ele>1875</ele>
        <time>2013-10-07T18:37:50Z</time>
      </trkpt>
      <trkpt lat="45.12731" lon="5.89161">
        <ele>1874</ele>
        <time>2013-10-07T18:37:55Z</time>
      </trkpt>
      <trkpt lat="45.12732" lon="5.89149">
        <ele>1874</ele>
        <time>2013-10-07T18:38:06Z</time>
      </trkpt>
      <trkpt lat="45.12732" lon="5.89145">
        <ele>1874</ele>
        <time>2013-10-07T18:38:09Z</time>
      </trkpt>
      <trkpt lat="45.12732" lon="5.89141">
        <ele>1873</ele>
        <time>2013-10-07T18:38:12Z</time>
      </trkpt>
      <trkpt lat="45.1273" lon="5.89139">
        <ele>1873</ele>
        <time>2013-10-07T18:38:15Z</time>
      </trkpt>
      <trkpt lat="45.12727" lon="5.8912">
        <ele>1872</ele>
        <time>2013-10-07T18:38:27Z</time>
      </trkpt>
      <trkpt lat="45.12726" lon="5.89116">
        <ele>1871</ele>
        <time>2013-10-07T18:38:29Z</time>
      </trkpt>
      <trkpt lat="45.12723" lon="5.89101">
        <ele>1869</ele>
        <time>2013-10-07T18:38:43Z</time>
      </trkpt>
      <trkpt lat="45.12722" lon="5.89097">
        <ele>1869</ele>
        <time>2013-10-07T18:38:46Z</time>
      </trkpt>
      <trkpt lat="45.12722" lon="5.89094">
        <ele>1869</ele>
        <time>2013-10-07T18:38:48Z</time>
      </trkpt>
      <trkpt lat="45.12722" lon="5.89076">
        <ele>1859</ele>
        <time>2013-10-07T18:38:59Z</time>
      </trkpt>
      <trkpt lat="45.12718" lon="5.89061">
        <ele>1859</ele>
        <time>2013-10-07T18:39:11Z</time>
      </trkpt>
      <trkpt lat="45.12718" lon="5.89039">
        <ele>1858</ele>
        <time>2013-10-07T18:39:28Z</time>
      </trkpt>
      <trkpt lat="45.12716" lon="5.89022">
        <ele>1856</ele>
        <time>2013-10-07T18:39:38Z</time>
      </trkpt>
      <trkpt lat="45.1271" lon="5.89013">
        <ele>1857</ele>
        <time>2013-10-07T18:39:44Z</time>
      </trkpt>
      <trkpt lat="45.12711" lon="5.88998">
        <ele>1847</ele>
        <time>2013-10-07T18:39:55Z</time>
      </trkpt>
      <trkpt lat="45.12721" lon="5.88987">
        <ele>1845</ele>
        <time>2013-10-07T18:40:06Z</time>
      </trkpt>
      <trkpt lat="45.12731" lon="5.88971">
        <ele>1844</ele>
        <time>2013-10-07T18:40:18Z</time>
      </trkpt>
      <trkpt lat="45.12734" lon="5.88961">
        <ele>1843</ele>
        <time>2013-10-07T18:40:31Z</time>
      </trkpt>
      <trkpt lat="45.12739" lon="5.88948">
        <ele>1841</ele>
        <time>2013-10-07T18:40:40Z</time>
      </trkpt>
      <trkpt lat="45.12741" lon="5.88936">
        <ele>1838</ele>
        <time>2013-10-07T18:40:48Z</time>
      </trkpt>
      <trkpt lat="45.12741" lon="5.88928">
        <ele>1836</ele>
        <time>2013-10-07T18:40:52Z</time>
      </trkpt>
      <trkpt lat="45.12739" lon="5.88923">
        <ele>1836</ele>
        <time>2013-10-07T18:40:56Z</time>
      </trkpt>
      <trkpt lat="45.12737" lon="5.88909">
        <ele>1830</ele>
        <time>2013-10-07T18:41:05Z</time>
      </trkpt>
      <trkpt lat="45.12743" lon="5.88893">
        <ele>1830</ele>
        <time>2013-10-07T18:41:15Z</time>
      </trkpt>
      <trkpt lat="45.12752" lon="5.88883">
        <ele>1826</ele>
        <time>2013-10-07T18:41:29Z</time>
      </trkpt>
      <trkpt lat="45.12769" lon="5.88863">
        <ele>1825</ele>
        <time>2013-10-07T18:41:44Z</time>
      </trkpt>
      <trkpt lat="45.12764" lon="5.88832">
        <ele>1828</ele>
        <time>2013-10-07T18:42:00Z</time>
      </trkpt>
      <trkpt lat="45.12752" lon="5.88799">
        <ele>1830</ele>
        <time>2013-10-07T18:42:19Z</time>
      </trkpt>
      <trkpt lat="45.12743" lon="5.88764">
        <ele>1825</ele>
        <time>2013-10-07T18:42:39Z</time>
      </trkpt>
      <trkpt lat="45.12733" lon="5.88721">
        <ele>1820</ele>
        <time>2013-10-07T18:43:01Z</time>
      </trkpt>
      <trkpt lat="45.12727" lon="5.88689">
        <ele>1820</ele>
        <time>2013-10-07T18:43:19Z</time>
      </trkpt>
      <trkpt lat="45.12726" lon="5.88683">
        <ele>1820</ele>
        <time>2013-10-07T18:43:22Z</time>
      </trkpt>
      <trkpt lat="45.1272" lon="5.88645">
        <ele>1815</ele>
        <time>2013-10-07T18:43:43Z</time>
      </trkpt>
      <trkpt lat="45.1272" lon="5.88641">
        <ele>1815</ele>
        <time>2013-10-07T18:43:49Z</time>
      </trkpt>
      <trkpt lat="45.12726" lon="5.88611">
        <ele>1814</ele>
        <time>2013-10-07T18:44:05Z</time>
      </trkpt>
      <trkpt lat="45.12726" lon="5.88608">
        <ele>1814</ele>
        <time>2013-10-07T18:44:07Z</time>
      </trkpt>
      <trkpt lat="45.12725" lon="5.88597">
        <ele>1813</ele>
        <time>2013-10-07T18:44:13Z</time>
      </trkpt>
      <trkpt lat="45.12728" lon="5.88576">
        <ele>1809</ele>
        <time>2013-10-07T18:44:28Z</time>
      </trkpt>
      <trkpt lat="45.12735" lon="5.88557">
        <ele>1807</ele>
        <time>2013-10-07T18:44:40Z</time>
      </trkpt>
      <trkpt lat="45.12738" lon="5.88542">
        <ele>1806</ele>
        <time>2013-10-07T18:44:53Z</time>
      </trkpt>
      <trkpt lat="45.12744" lon="5.88529">
        <ele>1805</ele>
        <time>2013-10-07T18:45:07Z</time>
      </trkpt>
      <trkpt lat="45.12758" lon="5.88511">
        <ele>1809</ele>
        <time>2013-10-07T18:45:22Z</time>
      </trkpt>
      <trkpt lat="45.12763" lon="5.88497">
        <ele>1801</ele>
        <time>2013-10-07T18:45:32Z</time>
      </trkpt>
      <trkpt lat="45.12768" lon="5.88487">
        <ele>1799</ele>
        <time>2013-10-07T18:45:38Z</time>
      </trkpt>
      <trkpt lat="45.12769" lon="5.88484">
        <ele>1798</ele>
        <time>2013-10-07T18:45:40Z</time>
      </trkpt>
      <trkpt lat="45.12773" lon="5.8848">
        <ele>1798</ele>
        <time>2013-10-07T18:45:44Z</time>
      </trkpt>
      <trkpt lat="45.12778" lon="5.88478">
        <ele>1797</ele>
        <time>2013-10-07T18:45:49Z</time>
      </trkpt>
      <trkpt lat="45.12781" lon="5.88469">
        <ele>1796</ele>
        <time>2013-10-07T18:45:55Z</time>
      </trkpt>
      <trkpt lat="45.12788" lon="5.88446">
        <ele>1794</ele>
        <time>2013-10-07T18:46:10Z</time>
      </trkpt>
      <trkpt lat="45.12804" lon="5.88429">
        <ele>1791</ele>
        <time>2013-10-07T18:46:24Z</time>
      </trkpt>
      <trkpt lat="45.12814" lon="5.88414">
        <ele>1780</ele>
        <time>2013-10-07T18:46:35Z</time>
      </trkpt>
      <trkpt lat="45.12822" lon="5.88403">
        <ele>1780</ele>
        <time>2013-10-07T18:46:43Z</time>
      </trkpt>
      <trkpt lat="45.12836" lon="5.8838">
        <ele>1783</ele>
        <time>2013-10-07T18:46:58Z</time>
      </trkpt>
      <trkpt lat="45.12846" lon="5.88363">
        <ele>1782</ele>
        <time>2013-10-07T18:47:09Z</time>
      </trkpt>
      <trkpt lat="45.12851" lon="5.88354">
        <ele>1781</ele>
        <time>2013-10-07T18:47:15Z</time>
      </trkpt>
      <trkpt lat="45.12863" lon="5.88329">
        <ele>1775</ele>
        <time>2013-10-07T18:47:30Z</time>
      </trkpt>
      <trkpt lat="45.12872" lon="5.88301">
        <ele>1776</ele>
        <time>2013-10-07T18:47:46Z</time>
      </trkpt>
      <trkpt lat="45.12873" lon="5.88286">
        <ele>1775</ele>
        <time>2013-10-07T18:47:54Z</time>
      </trkpt>
      <trkpt lat="45.12873" lon="5.88277">
        <ele>1774</ele>
        <time>2013-10-07T18:47:59Z</time>
      </trkpt>
      <trkpt lat="45.1287" lon="5.88272">
        <ele>1774</ele>
        <time>2013-10-07T18:48:03Z</time>
      </trkpt>
      <trkpt lat="45.1287" lon="5.88262">
        <ele>1773</ele>
        <time>2013-10-07T18:48:08Z</time>
      </trkpt>
      <trkpt lat="45.12865" lon="5.88251">
        <ele>1771</ele>
        <time>2013-10-07T18:48:15Z</time>
      </trkpt>
      <trkpt lat="45.12864" lon="5.88248">
        <ele>1764</ele>
        <time>2013-10-07T18:48:18Z</time>
      </trkpt>
      <trkpt lat="45.12859" lon="5.88244">
        <ele>1763</ele>
        <time>2013-10-07T18:48:23Z</time>
      </trkpt>
      <trkpt lat="45.12852" lon="5.88233">
        <ele>1762</ele>
        <time>2013-10-07T18:48:31Z</time>
      </trkpt>
      <trkpt lat="45.12845" lon="5.88225">
        <ele>1761</ele>
        <time>2013-10-07T18:48:38Z</time>
      </trkpt>
      <trkpt lat="45.12839" lon="5.88217">
        <ele>1760</ele>
        <time>2013-10-07T18:48:45Z</time>
      </trkpt>
      <trkpt lat="45.12836" lon="5.88213">
        <ele>1760</ele>
        <time>2013-10-07T18:48:59Z</time>
      </trkpt>
      <trkpt lat="45.12837" lon="5.88211">
        <ele>1760</ele>
        <time>2013-10-07T18:49:22Z</time>
      </trkpt>
      <trkpt lat="45.12832" lon="5.88206">
        <ele>1746</ele>
        <time>2013-10-07T18:49:55Z</time>
      </trkpt>
      <trkpt lat="45.1282" lon="5.88187">
        <ele>1744</ele>
        <time>2013-10-07T18:50:10Z</time>
      </trkpt>
      <trkpt lat="45.12808" lon="5.88158">
        <ele>1736</ele>
        <time>2013-10-07T18:50:28Z</time>
      </trkpt>
      <trkpt lat="45.12803" lon="5.88136">
        <ele>1733</ele>
        <time>2013-10-07T18:50:39Z</time>
      </trkpt>
      <trkpt lat="45.12797" lon="5.88123">
        <ele>1732</ele>
        <time>2013-10-07T18:50:48Z</time>
      </trkpt>
      <trkpt lat="45.1279" lon="5.88124">
        <ele>1731</ele>
        <time>2013-10-07T18:50:53Z</time>
      </trkpt>
      <trkpt lat="45.12788" lon="5.88123">
        <ele>1731</ele>
        <time>2013-10-07T18:50:55Z</time>
      </trkpt>
      <trkpt lat="45.12779" lon="5.88106">
        <ele>1728</ele>
        <time>2013-10-07T18:51:04Z</time>
      </trkpt>
      <trkpt lat="45.12775" lon="5.88093">
        <ele>1726</ele>
        <time>2013-10-07T18:51:11Z</time>
      </trkpt>
      <trkpt lat="45.12767" lon="5.88081">
        <ele>1721</ele>
        <time>2013-10-07T18:51:19Z</time>
      </trkpt>
      <trkpt lat="45.12763" lon="5.88067">
        <ele>1721</ele>
        <time>2013-10-07T18:51:32Z</time>
      </trkpt>
      <trkpt lat="45.12756" lon="5.88049">
        <ele>1723</ele>
        <time>2013-10-07T18:51:44Z</time>
      </trkpt>
      <trkpt lat="45.12755" lon="5.88047">
        <ele>1723</ele>
        <time>2013-10-07T18:51:45Z</time>
      </trkpt>
      <trkpt lat="45.12752" lon="5.88042">
        <ele>1723</ele>
        <time>2013-10-07T18:51:48Z</time>
      </trkpt>
      <trkpt lat="45.12746" lon="5.88035">
        <ele>1706</ele>
        <time>2013-10-07T18:51:59Z</time>
      </trkpt>
      <trkpt lat="45.12744" lon="5.88033">
        <ele>1706</ele>
        <time>2013-10-07T18:52:05Z</time>
      </trkpt>
      <trkpt lat="45.12732" lon="5.88025">
        <ele>1706</ele>
        <time>2013-10-07T18:52:16Z</time>
      </trkpt>
      <trkpt lat="45.1272" lon="5.88012">
        <ele>1704</ele>
        <time>2013-10-07T18:52:26Z</time>
      </trkpt>
      <trkpt lat="45.12707" lon="5.88003">
        <ele>1701</ele>
        <time>2013-10-07T18:52:36Z</time>
      </trkpt>
      <trkpt lat="45.12693" lon="5.87993">
        <ele>1698</ele>
        <time>2013-10-07T18:52:46Z</time>
      </trkpt>
      <trkpt lat="45.12679" lon="5.87985">
        <ele>1695</ele>
        <time>2013-10-07T18:52:55Z</time>
      </trkpt>
      <trkpt lat="45.12676" lon="5.87984">
        <ele>1695</ele>
        <time>2013-10-07T18:52:57Z</time>
      </trkpt>
      <trkpt lat="45.12672" lon="5.87981">
        <ele>1695</ele>
        <time>2013-10-07T18:53:00Z</time>
      </trkpt>
      <trkpt lat="45.12671" lon="5.87979">
        <ele>1695</ele>
        <time>2013-10-07T18:53:01Z</time>
      </trkpt>
      <trkpt lat="45.12667" lon="5.87976">
        <ele>1695</ele>
        <time>2013-10-07T18:53:05Z</time>
      </trkpt>
      <trkpt lat="45.12655" lon="5.87969">
        <ele>1683</ele>
        <time>2013-10-07T18:53:16Z</time>
      </trkpt>
      <trkpt lat="45.12653" lon="5.87966">
        <ele>1683</ele>
        <time>2013-10-07T18:53:18Z</time>
      </trkpt>
      <trkpt lat="45.12647" lon="5.87954">
        <ele>1683</ele>
        <time>2013-10-07T18:53:29Z</time>
      </trkpt>
      <trkpt lat="45.12639" lon="5.87927">
        <ele>1683</ele>
        <time>2013-10-07T18:53:44Z</time>
      </trkpt>
      <trkpt lat="45.12636" lon="5.87901">
        <ele>1682</ele>
        <time>2013-10-07T18:53:58Z</time>
      </trkpt>
      <trkpt lat="45.12636" lon="5.87899">
        <ele>1682</ele>
        <time>2013-10-07T18:53:59Z</time>
      </trkpt>
      <trkpt lat="45.12629" lon="5.87896">
        <ele>1681</ele>
        <time>2013-10-07T18:54:04Z</time>
      </trkpt>
      <trkpt lat="45.12602" lon="5.879">
        <ele>1678</ele>
        <time>2013-10-07T18:54:24Z</time>
      </trkpt>
      <trkpt lat="45.12586" lon="5.87903">
        <ele>1676</ele>
        <time>2013-10-07T18:54:39Z</time>
      </trkpt>
      <trkpt lat="45.12566" lon="5.87908">
        <ele>1669</ele>
        <time>2013-10-07T18:54:56Z</time>
      </trkpt>
    </trkseg>
  </trk>
</gpx>